Time,TemperatureF,DewpointF,PressureIn,WindDirection,WindDirectionDegrees,WindSpeedMPH,WindSpeedGustMPH,Humidity,HourlyPrecipIn,Conditions,Clouds,dailyrainin,SoftwareType,DateUTC
2013-07-30 00:00:00,68.9,50.6,30.02,SE,127,0.0,4.9,52,0.00,,OVC060,0.00,VWS V14.01,2013-07-30 05:00:00,
2013-07-30 00:01:00,68.7,51.4,30.02,SSE,160,3.6,3.6,54,0.00,,OVC044,0.00,VWS V14.01,2013-07-30 05:01:00,
2013-07-30 00:02:00,68.7,51.4,30.02,SSE,148,3.6,3.6,54,0.00,,OVC044,0.00,VWS V14.01,2013-07-30 05:02:00,
2013-07-30 00:04:00,68.7,52.4,30.02,SSE,163,3.1,4.0,56,0.00,,OVC044,0.00,VWS V14.01,2013-07-30 05:04:00,
2013-07-30 00:05:00,68.5,52.2,30.02,SSE,162,4.0,4.0,56,0.00,,OVC044,0.00,VWS V14.01,2013-07-30 05:05:00,
2013-07-30 00:07:00,68.5,53.2,30.02,SSE,167,3.1,3.1,58,0.00,,OVC044,0.00,VWS V14.01,2013-07-30 05:07:00,
2013-07-30 00:08:00,68.4,53.0,30.02,SSW,192,3.6,3.6,58,0.00,,OVC044,0.00,VWS V14.01,2013-07-30 05:08:00,
2013-07-30 00:09:00,68.4,53.0,30.02,SSW,208,5.4,5.4,58,0.00,,OVC044,0.00,VWS V14.01,2013-07-30 05:09:00,
2013-07-30 00:11:00,68.2,53.8,30.02,SW,214,3.1,4.0,60,0.00,,OVC044,0.00,VWS V14.01,2013-07-30 05:11:00,
2013-07-30 00:12:00,68.0,53.6,30.02,SW,218,2.2,3.1,60,0.00,,OVC044,0.00,VWS V14.01,2013-07-30 05:12:00,
2013-07-30 00:14:00,67.8,54.3,30.02,SW,218,0.0,0.0,62,0.00,,OVC044,0.00,VWS V14.01,2013-07-30 05:14:00,
2013-07-30 00:15:00,67.8,54.3,30.02,SW,218,0.0,0.0,62,0.00,,OVC044,0.00,VWS V14.01,2013-07-30 05:15:00,
2013-07-30 00:16:00,67.8,55.2,30.02,SW,218,0.0,0.0,64,0.00,,OVC044,0.00,VWS V14.01,2013-07-30 05:16:00,
2013-07-30 00:18:00,67.6,55.0,30.02,SW,218,0.0,0.0,64,0.00,,OVC044,0.00,VWS V14.01,2013-07-30 05:18:00,
2013-07-30 00:19:00,67.6,55.9,30.02,SW,218,0.0,0.0,66,0.00,,OVC044,0.00,VWS V14.01,2013-07-30 05:19:00,
2013-07-30 00:20:00,67.5,55.7,30.02,SW,218,0.0,0.0,66,0.00,,OVC044,0.00,VWS V14.01,2013-07-30 05:20:00,
2013-07-30 00:21:00,67.5,55.7,30.02,SW,218,0.0,0.0,66,0.00,,OVC044,0.00,VWS V14.01,2013-07-30 05:21:00,
2013-07-30 00:24:00,67.5,55.7,30.02,SW,218,0.0,0.0,66,0.00,,OVC044,0.00,VWS V14.01,2013-07-30 05:24:00,
2013-07-30 00:25:00,67.5,55.7,30.02,SW,218,0.0,0.0,66,0.00,,OVC044,0.00,VWS V14.01,2013-07-30 05:25:00,
2013-07-30 00:26:00,67.5,55.7,30.02,SW,218,0.0,0.0,66,0.00,,OVC044,0.00,VWS V14.01,2013-07-30 05:26:00,
2013-07-30 00:28:00,67.3,55.5,30.02,SW,218,0.0,0.0,66,0.00,,OVC044,0.00,VWS V14.01,2013-07-30 05:28:00,
2013-07-30 00:30:00,67.3,56.4,30.02,SW,218,0.0,0.0,68,0.00,,OVC044,0.00,VWS V14.01,2013-07-30 05:30:00,
2013-07-30 00:32:00,67.3,56.4,30.02,SW,215,0.0,0.0,68,0.00,,OVC044,0.00,VWS V14.01,2013-07-30 05:32:00,
2013-07-30 00:34:00,67.3,56.4,30.02,SW,215,0.0,0.0,68,0.00,,OVC044,0.00,VWS V14.01,2013-07-30 05:34:00,
2013-07-30 00:36:00,67.3,56.4,30.02,SW,215,0.0,0.0,68,0.00,,OVC044,0.00,VWS V14.01,2013-07-30 05:36:00,
2013-07-30 00:38:00,67.3,56.4,30.02,SW,215,0.0,0.0,68,0.00,,OVC044,0.00,VWS V14.01,2013-07-30 05:38:00,
2013-07-30 00:40:00,67.1,56.2,30.02,SW,215,0.0,0.0,68,0.04,,OVC044,0.04,VWS V14.01,2013-07-30 05:40:00,
2013-07-30 00:41:00,67.1,56.2,30.02,SW,215,0.0,0.0,68,0.04,,OVC044,0.04,VWS V14.01,2013-07-30 05:41:00,
2013-07-30 00:43:00,67.1,56.2,30.02,SSW,211,0.0,0.0,68,0.04,,OVC044,0.04,VWS V14.01,2013-07-30 05:43:00,
2013-07-30 00:44:00,67.1,56.2,30.02,SSW,211,0.0,0.0,68,0.04,,OVC044,0.04,VWS V14.01,2013-07-30 05:44:00,
2013-07-30 00:46:00,67.1,56.2,30.02,SSW,211,0.0,0.0,68,0.04,,OVC044,0.04,VWS V14.01,2013-07-30 05:46:00,
2013-07-30 00:47:00,67.1,56.2,30.02,East,88,3.6,3.6,68,0.04,,OVC044,0.04,VWS V14.01,2013-07-30 05:47:00,
2013-07-30 00:48:00,67.1,57.0,30.02,East,88,0.0,0.0,70,0.04,,OVC044,0.04,VWS V14.01,2013-07-30 05:48:00,
2013-07-30 00:50:00,67.1,57.0,30.02,East,88,0.0,0.0,70,0.04,,OVC044,0.04,VWS V14.01,2013-07-30 05:50:00,
2013-07-30 00:52:00,67.1,57.8,30.02,East,88,0.0,0.0,72,0.04,,OVC044,0.04,VWS V14.01,2013-07-30 05:52:00,
2013-07-30 00:53:00,66.9,57.6,30.02,East,88,0.0,0.0,72,0.04,,OVC044,0.04,VWS V14.01,2013-07-30 05:53:00,
2013-07-30 00:55:00,67.1,57.8,30.02,East,84,3.6,3.6,72,0.04,,OVC044,0.04,VWS V14.01,2013-07-30 05:55:00,
2013-07-30 00:58:00,67.1,57.8,30.02,East,81,0.0,0.0,72,0.04,,OVC044,0.04,VWS V14.01,2013-07-30 05:58:00,
2013-07-30 00:59:00,67.1,57.8,30.02,East,82,0.0,0.0,72,0.04,,OVC044,0.04,VWS V14.01,2013-07-30 05:59:00,
2013-07-30 01:02:00,67.1,58.5,30.02,East,82,0.0,0.0,74,0.04,,OVC055,0.04,VWS V14.01,2013-07-30 06:02:00,
2013-07-30 01:04:00,66.9,58.4,30.02,East,82,2.7,2.7,74,0.04,,OVC055,0.04,VWS V14.01,2013-07-30 06:04:00,
2013-07-30 01:05:00,66.9,58.4,30.02,East,82,0.0,2.7,74,0.04,,OVC055,0.04,VWS V14.01,2013-07-30 06:05:00,
2013-07-30 01:07:00,66.9,59.1,30.02,East,82,0.0,3.1,76,0.04,,OVC055,0.04,VWS V14.01,2013-07-30 06:07:00,
2013-07-30 01:09:00,66.9,59.1,30.02,East,85,2.7,2.7,76,0.04,,OVC055,0.04,VWS V14.01,2013-07-30 06:09:00,
2013-07-30 01:10:00,66.9,59.8,30.02,East,85,3.1,3.6,78,0.04,,OVC055,0.04,VWS V14.01,2013-07-30 06:10:00,
2013-07-30 01:11:00,66.9,59.8,30.02,East,83,3.6,3.6,78,0.04,,OVC055,0.04,VWS V14.01,2013-07-30 06:11:00,
2013-07-30 01:12:00,66.9,59.8,29.99,East,81,2.7,3.1,78,0.04,,OVC055,0.04,VWS V14.01,2013-07-30 06:12:00,
2013-07-30 01:15:00,66.9,59.8,29.99,East,81,3.6,4.0,78,0.04,,OVC055,0.04,VWS V14.01,2013-07-30 06:15:00,
2013-07-30 01:16:00,66.9,60.6,29.99,NE,54,2.2,3.1,80,0.04,,OVC055,0.04,VWS V14.01,2013-07-30 06:16:00,
2013-07-30 01:17:00,66.9,60.6,29.99,ENE,72,0.0,3.1,80,0.04,,OVC055,0.04,VWS V14.01,2013-07-30 06:17:00,
2013-07-30 01:18:00,66.9,60.6,29.99,ENE,72,0.0,3.1,80,0.04,,OVC055,0.04,VWS V14.01,2013-07-30 06:18:00,
2013-07-30 01:20:00,66.7,60.4,29.99,ENE,73,0.0,0.0,80,0.04,,OVC055,0.04,VWS V14.01,2013-07-30 06:20:00,
2013-07-30 01:21:00,66.7,60.4,29.99,ENE,73,0.0,3.6,80,0.04,,OVC055,0.04,VWS V14.01,2013-07-30 06:21:00,
2013-07-30 01:22:00,66.7,60.4,29.99,ENE,75,2.2,3.6,80,0.04,,OVC055,0.04,VWS V14.01,2013-07-30 06:22:00,
2013-07-30 01:23:00,66.7,60.4,29.99,ENE,75,0.0,0.0,80,0.04,,OVC055,0.04,VWS V14.01,2013-07-30 06:23:00,
2013-07-30 01:24:00,66.7,61.1,29.99,ENE,75,2.2,2.2,82,0.04,,OVC055,0.04,VWS V14.01,2013-07-30 06:24:00,
2013-07-30 01:26:00,66.7,61.1,29.99,East,79,2.2,2.7,82,0.04,,OVC055,0.04,VWS V14.01,2013-07-30 06:26:00,
2013-07-30 01:28:00,66.6,61.6,29.99,East,87,2.7,2.7,84,0.04,,OVC055,0.04,VWS V14.01,2013-07-30 06:28:00,
2013-07-30 01:30:00,66.6,61.6,29.99,East,87,0.0,0.0,84,0.04,,-RA,0.04,VWS V14.01,2013-07-30 06:30:00,
2013-07-30 01:32:00,66.6,61.6,29.99,ENE,73,3.6,4.0,84,0.04,,-RA,0.04,VWS V14.01,2013-07-30 06:32:00,
2013-07-30 01:33:00,66.6,61.6,29.99,ENE,73,2.2,3.1,84,0.04,,-RA,0.04,VWS V14.01,2013-07-30 06:33:00,
2013-07-30 01:34:00,66.6,61.6,29.99,ENE,70,3.1,3.1,84,0.04,,-RA,0.04,VWS V14.01,2013-07-30 06:34:00,
2013-07-30 01:35:00,66.6,62.2,29.99,ENE,72,0.0,3.1,86,0.04,,-RA,0.04,VWS V14.01,2013-07-30 06:35:00,
2013-07-30 01:38:00,66.6,62.2,29.99,ENE,72,0.0,0.0,86,0.04,,-RA,0.04,VWS V14.01,2013-07-30 06:38:00,
2013-07-30 01:39:00,66.6,62.2,29.99,ENE,72,0.0,0.0,86,0.04,,-RA,0.04,VWS V14.01,2013-07-30 06:39:00,
2013-07-30 01:40:00,66.7,62.4,29.99,ENE,73,0.0,0.0,86,0.00,,-RA,0.04,VWS V14.01,2013-07-30 06:40:00,
2013-07-30 01:41:00,66.7,62.4,29.99,ENE,73,0.0,2.2,86,0.00,,-RA,0.04,VWS V14.01,2013-07-30 06:41:00,
2013-07-30 01:44:00,66.7,62.4,29.99,ENE,73,0.0,0.0,86,0.00,,-RA,0.04,VWS V14.01,2013-07-30 06:44:00,
2013-07-30 01:46:00,66.7,63.1,29.99,ENE,73,0.0,0.0,88,0.00,,-RA,0.04,VWS V14.01,2013-07-30 06:46:00,
2013-07-30 01:48:00,66.7,63.1,29.99,East,94,0.0,0.0,88,0.00,,-RA,0.04,VWS V14.01,2013-07-30 06:48:00,
2013-07-30 01:49:00,66.7,63.1,29.99,East,93,2.7,3.1,88,0.00,,-RA,0.04,VWS V14.01,2013-07-30 06:49:00,
2013-07-30 01:50:00,66.7,63.1,29.99,East,93,2.2,3.1,88,0.00,,-RA,0.04,VWS V14.01,2013-07-30 06:50:00,
2013-07-30 01:52:00,66.7,63.1,29.99,East,82,2.7,4.9,88,0.00,,-RA,0.04,VWS V14.01,2013-07-30 06:52:00,
2013-07-30 01:53:00,66.9,63.3,29.99,SSE,167,2.2,2.2,88,0.00,,-RA,0.04,VWS V14.01,2013-07-30 06:53:00,
2013-07-30 01:55:00,66.9,63.3,29.99,ENE,68,3.1,4.0,88,0.00,,-RA,0.04,VWS V14.01,2013-07-30 06:55:00,
2013-07-30 01:58:00,66.9,63.9,29.99,ENE,68,0.0,0.0,90,0.00,,-RA,0.04,VWS V14.01,2013-07-30 06:58:00,
2013-07-30 02:00:00,66.9,63.9,29.99,ENE,68,0.0,0.0,90,0.00,,-RA,0.04,VWS V14.01,2013-07-30 07:00:00,
2013-07-30 02:01:00,66.9,63.9,29.99,ENE,68,0.0,0.0,90,0.00,,-RA,0.04,VWS V14.01,2013-07-30 07:01:00,
2013-07-30 02:02:00,66.9,63.9,29.99,ENE,68,0.0,0.0,90,0.00,,-RA,0.04,VWS V14.01,2013-07-30 07:02:00,
2013-07-30 02:03:00,66.9,63.9,29.99,ENE,69,0.0,0.0,90,0.00,,-RA,0.04,VWS V14.01,2013-07-30 07:03:00,
2013-07-30 02:04:00,66.9,63.9,29.99,ENE,69,0.0,0.0,90,0.00,,-RA,0.04,VWS V14.01,2013-07-30 07:04:00,
2013-07-30 02:06:00,66.9,63.9,29.99,SSE,167,2.2,3.1,90,0.00,,-RA,0.04,VWS V14.01,2013-07-30 07:06:00,
2013-07-30 02:08:00,66.9,63.9,29.99,SSE,153,2.2,2.7,90,0.00,,-RA,0.04,VWS V14.01,2013-07-30 07:08:00,
2013-07-30 02:09:00,66.9,63.9,29.99,ESE,120,0.0,0.0,90,0.00,,-RA,0.04,VWS V14.01,2013-07-30 07:09:00,
2013-07-30 02:10:00,66.9,63.9,29.99,ESE,120,0.0,0.0,90,0.00,,-RA,0.04,VWS V14.01,2013-07-30 07:10:00,
2013-07-30 02:11:00,66.9,63.9,29.99,SSE,158,2.7,2.7,90,0.04,,-RA,0.08,VWS V14.01,2013-07-30 07:11:00,
2013-07-30 02:12:00,66.9,63.9,29.99,SSE,158,2.7,3.1,90,0.04,,-RA,0.08,VWS V14.01,2013-07-30 07:12:00,
2013-07-30 02:13:00,66.9,63.9,29.99,SSE,158,0.0,2.7,90,0.04,,-RA,0.08,VWS V14.01,2013-07-30 07:13:00,
2013-07-30 02:15:00,66.9,63.9,29.99,SSE,158,3.1,3.1,90,0.04,,-RA,0.08,VWS V14.01,2013-07-30 07:15:00,
2013-07-30 02:16:00,66.9,63.9,29.99,SSE,158,2.2,2.2,90,0.04,,-RA,0.08,VWS V14.01,2013-07-30 07:16:00,
2013-07-30 02:18:00,66.9,63.9,29.99,SSE,158,3.6,3.6,90,0.08,,-RA,0.12,VWS V14.01,2013-07-30 07:18:00,
2013-07-30 02:19:00,66.9,63.9,29.99,SSE,153,3.1,3.1,90,0.08,,-RA,0.12,VWS V14.01,2013-07-30 07:19:00,
2013-07-30 02:20:00,66.9,64.5,29.99,SSE,152,2.2,3.1,92,0.08,,-RA,0.12,VWS V14.01,2013-07-30 07:20:00,
2013-07-30 02:21:00,66.9,64.5,29.99,SSE,152,0.0,0.0,92,0.08,,-RA,0.12,VWS V14.01,2013-07-30 07:21:00,
2013-07-30 02:23:00,66.9,64.5,29.99,SSE,152,0.0,0.0,92,0.08,,-RA,0.12,VWS V14.01,2013-07-30 07:23:00,
2013-07-30 02:25:00,66.9,64.5,29.99,SSE,152,0.0,0.0,92,0.08,,-RA,0.12,VWS V14.01,2013-07-30 07:25:00,
2013-07-30 02:26:00,66.9,64.5,29.99,SSE,152,0.0,0.0,92,0.08,,-RA,0.12,VWS V14.01,2013-07-30 07:26:00,
2013-07-30 02:27:00,66.9,64.5,30.02,SSE,152,0.0,0.0,92,0.08,,-RA,0.12,VWS V14.01,2013-07-30 07:27:00,
2013-07-30 02:29:00,66.9,64.5,30.02,SSE,152,0.0,2.7,92,0.12,,-RA,0.16,VWS V14.01,2013-07-30 07:29:00,
2013-07-30 02:32:00,66.9,64.5,30.02,SSE,152,0.0,0.0,92,0.12,,-RA,0.16,VWS V14.01,2013-07-30 07:32:00,
2013-07-30 02:33:00,66.9,65.1,30.02,SSE,152,0.0,0.0,94,0.12,,-RA,0.16,VWS V14.01,2013-07-30 07:33:00,
2013-07-30 02:35:00,66.9,65.1,30.02,SSE,152,0.0,0.0,94,0.16,,-RA,0.20,VWS V14.01,2013-07-30 07:35:00,
2013-07-30 02:37:00,66.9,65.1,30.02,East,92,2.7,3.1,94,0.16,,-RA,0.20,VWS V14.01,2013-07-30 07:37:00,
2013-07-30 02:38:00,66.9,65.1,30.02,East,92,3.1,3.1,94,0.16,,-RA,0.20,VWS V14.01,2013-07-30 07:38:00,
2013-07-30 02:39:00,66.9,65.1,30.02,East,91,4.0,4.0,94,0.20,,-RA,0.24,VWS V14.01,2013-07-30 07:39:00,
2013-07-30 02:40:00,66.9,65.1,30.02,ENE,78,3.1,4.9,94,0.20,,-RA,0.24,VWS V14.01,2013-07-30 07:40:00,
2013-07-30 02:42:00,66.9,65.1,29.99,ENE,70,4.0,4.0,94,0.24,,-RA,0.28,VWS V14.01,2013-07-30 07:42:00,
2013-07-30 02:43:00,66.9,65.1,29.99,ENE,73,3.1,4.9,94,0.24,,-RA,0.28,VWS V14.01,2013-07-30 07:43:00,
2013-07-30 02:45:00,66.9,65.8,29.99,East,96,4.0,6.3,96,0.31,,-RA,0.35,VWS V14.01,2013-07-30 07:45:00,
2013-07-30 02:46:00,66.9,65.8,29.99,East,79,5.4,5.4,96,0.31,,-RA,0.35,VWS V14.01,2013-07-30 07:46:00,
2013-07-30 02:47:00,66.9,66.3,29.99,East,91,4.0,4.9,98,0.31,,-RA,0.35,VWS V14.01,2013-07-30 07:47:00,
2013-07-30 02:48:00,66.7,66.2,29.99,East,90,2.7,4.9,98,0.31,,-RA,0.35,VWS V14.01,2013-07-30 07:48:00,
2013-07-30 02:50:00,66.7,66.7,29.99,East,82,4.0,4.0,100,0.31,,-RA,0.35,VWS V14.01,2013-07-30 07:50:00,
2013-07-30 02:52:00,66.7,66.7,29.99,ESE,103,2.2,6.3,100,0.31,,-RA,0.35,VWS V14.01,2013-07-30 07:52:00,
2013-07-30 02:53:00,66.7,66.7,29.99,ENE,69,5.8,5.8,100,0.31,,-RA,0.35,VWS V14.01,2013-07-30 07:53:00,
2013-07-30 02:55:00,66.7,66.7,29.99,East,91,0.0,4.0,100,0.35,,-RA,0.39,VWS V14.01,2013-07-30 07:55:00,
2013-07-30 02:57:00,66.9,66.9,29.99,East,95,3.1,5.8,100,0.35,,-RA,0.39,VWS V14.01,2013-07-30 07:57:00,
2013-07-30 02:58:00,66.9,66.9,29.99,East,81,3.1,4.0,100,0.35,,-RA,0.39,VWS V14.01,2013-07-30 07:58:00,
2013-07-30 02:59:00,66.9,66.9,29.99,East,83,2.7,3.6,100,0.35,,-RA,0.39,VWS V14.01,2013-07-30 07:59:00,
2013-07-30 03:01:00,66.9,66.9,29.99,ENE,76,3.1,3.6,100,0.35,,RA,0.39,VWS V14.01,2013-07-30 08:01:00,
2013-07-30 03:02:00,66.9,66.9,29.99,ENE,70,5.4,5.4,100,0.35,,RA,0.39,VWS V14.01,2013-07-30 08:02:00,
2013-07-30 03:05:00,66.9,66.9,29.99,ENE,71,4.9,5.4,100,0.35,,RA,0.39,VWS V14.01,2013-07-30 08:05:00,
2013-07-30 03:07:00,66.9,66.9,29.99,East,79,3.6,4.9,100,0.35,,RA,0.39,VWS V14.01,2013-07-30 08:07:00,
2013-07-30 03:09:00,66.9,66.9,29.99,East,96,2.2,2.7,100,0.39,,RA,0.43,VWS V14.01,2013-07-30 08:09:00,
2013-07-30 03:10:00,66.9,66.9,29.99,East,96,0.0,2.7,100,0.39,,RA,0.43,VWS V14.01,2013-07-30 08:10:00,
2013-07-30 03:12:00,66.9,66.9,29.99,East,88,3.6,3.6,100,0.39,,RA,0.43,VWS V14.01,2013-07-30 08:12:00,
2013-07-30 03:15:00,66.9,66.9,29.99,East,87,3.1,3.1,100,0.35,,RA,0.43,VWS V14.01,2013-07-30 08:15:00,
2013-07-30 03:17:00,66.9,66.9,29.99,ENE,71,2.7,5.4,100,0.35,,RA,0.43,VWS V14.01,2013-07-30 08:17:00,
2013-07-30 03:18:00,66.9,66.9,29.99,ENE,76,3.6,3.6,100,0.31,,RA,0.43,VWS V14.01,2013-07-30 08:18:00,
2013-07-30 03:20:00,66.9,66.9,29.99,ENE,76,0.0,0.0,100,0.31,,RA,0.43,VWS V14.01,2013-07-30 08:20:00,
2013-07-30 03:21:00,67.1,67.1,29.99,NNE,12,4.0,4.0,100,0.31,,RA,0.43,VWS V14.01,2013-07-30 08:21:00,
2013-07-30 03:22:00,67.1,67.1,29.99,North,0,2.7,3.1,100,0.31,,RA,0.43,VWS V14.01,2013-07-30 08:22:00,
2013-07-30 03:23:00,67.1,67.1,29.99,NW,306,0.0,3.1,100,0.31,,RA,0.43,VWS V14.01,2013-07-30 08:23:00,
2013-07-30 03:25:00,67.1,67.1,29.99,NW,306,0.0,0.0,100,0.31,,RA,0.43,VWS V14.01,2013-07-30 08:25:00,
2013-07-30 03:26:00,67.1,67.1,29.99,NW,310,2.2,4.0,100,0.31,,RA,0.43,VWS V14.01,2013-07-30 08:26:00,
2013-07-30 03:27:00,67.1,67.1,29.99,NW,312,0.0,2.7,100,0.31,,RA,0.43,VWS V14.01,2013-07-30 08:27:00,
2013-07-30 03:28:00,67.1,67.1,29.99,NW,312,0.0,0.0,100,0.28,,RA,0.43,VWS V14.01,2013-07-30 08:28:00,
2013-07-30 03:31:00,67.1,67.1,29.99,North,0,2.2,2.7,100,0.31,,RA,0.47,VWS V14.01,2013-07-30 08:31:00,
2013-07-30 03:32:00,67.3,67.3,29.99,North,353,3.6,3.6,100,0.31,,RA,0.47,VWS V14.01,2013-07-30 08:32:00,
2013-07-30 03:33:00,67.3,67.3,29.99,North,350,3.1,3.1,100,0.31,,RA,0.47,VWS V14.01,2013-07-30 08:33:00,
2013-07-30 03:34:00,67.3,67.3,29.99,North,350,2.2,3.1,100,0.31,,RA,0.47,VWS V14.01,2013-07-30 08:34:00,
2013-07-30 03:36:00,67.3,67.3,29.99,North,350,2.2,2.7,100,0.28,,RA,0.47,VWS V14.01,2013-07-30 08:36:00,
2013-07-30 03:37:00,67.3,67.3,29.99,North,0,0.0,0.0,100,0.28,,RA,0.47,VWS V14.01,2013-07-30 08:37:00,
2013-07-30 03:39:00,67.3,67.3,29.99,ENE,65,2.2,2.2,100,0.24,,RA,0.47,VWS V14.01,2013-07-30 08:39:00,
2013-07-30 03:40:00,67.3,67.3,29.99,East,81,0.0,3.1,100,0.24,,RA,0.47,VWS V14.01,2013-07-30 08:40:00,
2013-07-30 03:42:00,67.3,67.3,29.99,East,81,2.2,2.2,100,0.24,,RA,0.47,VWS V14.01,2013-07-30 08:42:00,
2013-07-30 03:43:00,67.3,67.3,29.99,East,89,0.0,0.0,100,0.20,,RA,0.47,VWS V14.01,2013-07-30 08:43:00,
2013-07-30 03:44:00,67.3,67.3,29.99,East,85,2.7,2.7,100,0.20,,RA,0.47,VWS V14.01,2013-07-30 08:44:00,
2013-07-30 03:47:00,67.3,67.3,29.99,East,85,0.0,2.7,100,0.12,,RA,0.47,VWS V14.01,2013-07-30 08:47:00,
2013-07-30 03:48:00,67.3,67.3,29.99,East,85,0.0,2.2,100,0.12,,RA,0.47,VWS V14.01,2013-07-30 08:48:00,
2013-07-30 03:50:00,67.3,67.3,29.99,East,85,0.0,2.7,100,0.12,,RA,0.47,VWS V14.01,2013-07-30 08:50:00,
2013-07-30 03:52:00,67.3,67.3,29.99,East,85,0.0,0.0,100,0.12,,RA,0.47,VWS V14.01,2013-07-30 08:52:00,
2013-07-30 03:54:00,67.3,67.3,29.99,East,85,0.0,0.0,100,0.12,,RA,0.47,VWS V14.01,2013-07-30 08:54:00,
2013-07-30 03:55:00,67.3,67.3,29.99,East,85,0.0,0.0,100,0.12,,RA,0.47,VWS V14.01,2013-07-30 08:55:00,
2013-07-30 03:58:00,67.3,67.3,29.99,East,85,0.0,0.0,100,0.08,,RA,0.47,VWS V14.01,2013-07-30 08:58:00,
2013-07-30 03:59:00,67.3,67.3,29.99,East,85,2.2,2.2,100,0.08,,RA,0.47,VWS V14.01,2013-07-30 08:59:00,
2013-07-30 04:00:00,67.3,67.3,29.99,East,85,0.0,2.2,100,0.12,,RA,0.51,VWS V14.01,2013-07-30 09:00:00,
2013-07-30 04:03:00,67.3,67.3,29.99,ENE,68,0.0,0.0,100,0.16,,-RA,0.55,VWS V14.01,2013-07-30 09:03:00,
2013-07-30 04:04:00,67.3,67.3,29.99,ENE,69,3.1,3.1,100,0.16,,-RA,0.55,VWS V14.01,2013-07-30 09:04:00,
2013-07-30 04:05:00,67.3,67.3,29.99,ENE,68,0.0,3.1,100,0.16,,-RA,0.55,VWS V14.01,2013-07-30 09:05:00,
2013-07-30 04:07:00,67.3,67.3,29.99,ENE,72,2.2,3.6,100,0.16,,-RA,0.55,VWS V14.01,2013-07-30 09:07:00,
2013-07-30 04:09:00,67.1,67.1,29.99,ENE,67,3.6,3.6,100,0.16,,-RA,0.59,VWS V14.01,2013-07-30 09:09:00,
2013-07-30 04:10:00,67.1,67.1,29.99,ENE,67,3.1,3.6,100,0.16,,-RA,0.59,VWS V14.01,2013-07-30 09:10:00,
2013-07-30 04:12:00,67.1,67.1,29.99,ENE,69,0.0,3.1,100,0.16,,-RA,0.59,VWS V14.01,2013-07-30 09:12:00,
2013-07-30 04:15:00,67.1,67.1,29.99,SE,139,3.1,3.6,100,0.20,,-RA,0.63,VWS V14.01,2013-07-30 09:15:00,
2013-07-30 04:17:00,67.1,67.1,29.99,East,101,4.9,4.9,100,0.20,,-RA,0.63,VWS V14.01,2013-07-30 09:17:00,
2013-07-30 04:18:00,67.1,67.1,29.99,ESE,119,2.7,3.6,100,0.20,,-RA,0.63,VWS V14.01,2013-07-30 09:18:00,
2013-07-30 04:21:00,67.1,67.1,29.99,NE,52,3.6,4.5,100,0.24,,-RA,0.67,VWS V14.01,2013-07-30 09:21:00,
2013-07-30 04:22:00,67.1,67.1,29.99,ESE,117,2.7,3.6,100,0.24,,-RA,0.67,VWS V14.01,2013-07-30 09:22:00,
2013-07-30 04:23:00,67.1,67.1,29.99,East,96,0.0,3.1,100,0.24,,-RA,0.67,VWS V14.01,2013-07-30 09:23:00,
2013-07-30 04:26:00,67.1,67.1,29.99,ESE,104,0.0,2.7,100,0.24,,-RA,0.67,VWS V14.01,2013-07-30 09:26:00,
2013-07-30 04:27:00,67.1,67.1,29.99,ESE,104,0.0,2.7,100,0.24,,-RA,0.67,VWS V14.01,2013-07-30 09:27:00,
2013-07-30 04:29:00,67.1,67.1,29.99,East,91,3.6,3.6,100,0.28,,-RA,0.71,VWS V14.01,2013-07-30 09:29:00,
2013-07-30 04:32:00,67.1,67.1,29.99,ESE,122,0.0,3.1,100,0.28,,-RA,0.71,VWS V14.01,2013-07-30 09:32:00,
2013-07-30 04:34:00,67.1,67.1,29.99,ESE,116,2.2,3.1,100,0.24,,-RA,0.71,VWS V14.01,2013-07-30 09:34:00,
2013-07-30 04:35:00,67.1,67.1,29.99,ESE,108,2.7,2.7,100,0.24,,-RA,0.71,VWS V14.01,2013-07-30 09:35:00,
2013-07-30 04:38:00,67.1,67.1,29.99,ESE,117,3.1,5.4,100,0.24,,-RA,0.71,VWS V14.01,2013-07-30 09:38:00,
2013-07-30 04:39:00,67.1,67.1,29.99,ESE,118,4.0,4.0,100,0.24,,-RA,0.71,VWS V14.01,2013-07-30 09:39:00,
2013-07-30 04:40:00,67.1,67.1,29.99,East,91,6.7,6.7,100,0.24,,-RA,0.71,VWS V14.01,2013-07-30 09:40:00,
2013-07-30 04:44:00,67.1,67.1,29.96,ESE,103,3.6,4.0,100,0.24,,-RA,0.71,VWS V14.01,2013-07-30 09:44:00,
2013-07-30 04:45:00,67.1,67.1,29.96,ESE,118,4.0,4.9,100,0.24,,-RA,0.71,VWS V14.01,2013-07-30 09:45:00,
2013-07-30 04:46:00,66.9,66.9,29.96,SE,126,2.7,2.7,100,0.24,,-RA,0.71,VWS V14.01,2013-07-30 09:46:00,
2013-07-30 04:49:00,66.9,66.9,29.96,East,86,3.1,4.0,100,0.24,,-RA,0.71,VWS V14.01,2013-07-30 09:49:00,
2013-07-30 04:50:00,66.9,66.9,29.96,East,99,4.0,4.0,100,0.24,,-RA,0.71,VWS V14.01,2013-07-30 09:50:00,
2013-07-30 04:51:00,66.9,66.9,29.96,ESE,123,4.0,5.4,100,0.24,,-RA,0.71,VWS V14.01,2013-07-30 09:51:00,
2013-07-30 04:53:00,66.9,66.9,29.96,SE,146,2.2,3.6,100,0.24,,-RA,0.71,VWS V14.01,2013-07-30 09:53:00,
2013-07-30 04:54:00,66.9,66.9,29.96,East,101,0.0,3.6,100,0.24,,-RA,0.71,VWS V14.01,2013-07-30 09:54:00,
2013-07-30 04:56:00,66.9,66.9,29.96,ESE,102,2.2,2.2,100,0.24,,-RA,0.71,VWS V14.01,2013-07-30 09:56:00,
2013-07-30 04:57:00,66.9,66.9,29.99,SSE,154,5.4,5.4,100,0.24,,-RA,0.71,VWS V14.01,2013-07-30 09:57:00,
2013-07-30 05:00:00,67.1,67.1,29.99,SSE,147,2.7,2.7,100,0.20,,-RA,0.71,VWS V14.01,2013-07-30 10:00:00,
2013-07-30 05:01:00,67.1,67.1,29.99,SSE,150,3.6,5.4,100,0.20,, +RA,0.71,VWS V14.01,2013-07-30 10:01:00,
2013-07-30 05:02:00,67.1,67.1,29.99,SE,125,3.1,3.6,100,0.20,, +RA,0.71,VWS V14.01,2013-07-30 10:02:00,
2013-07-30 05:05:00,67.1,67.1,29.99,SSE,159,3.6,3.6,100,0.16,, +RA,0.71,VWS V14.01,2013-07-30 10:05:00,
2013-07-30 05:07:00,67.1,67.1,29.99,SE,139,3.1,5.8,100,0.16,, +RA,0.71,VWS V14.01,2013-07-30 10:07:00,
2013-07-30 05:08:00,67.1,67.1,29.99,ESE,122,3.6,5.4,100,0.16,, +RA,0.71,VWS V14.01,2013-07-30 10:08:00,
2013-07-30 05:11:00,67.1,67.1,29.99,ESE,120,2.2,4.9,100,0.12,, +RA,0.71,VWS V14.01,2013-07-30 10:11:00,
2013-07-30 05:12:00,67.1,67.1,29.96,ESE,122,3.1,3.1,100,0.12,, +RA,0.71,VWS V14.01,2013-07-30 10:12:00,
2013-07-30 05:13:00,67.1,67.1,29.96,SSE,153,3.6,4.9,100,0.12,, +RA,0.71,VWS V14.01,2013-07-30 10:13:00,
2013-07-30 05:16:00,67.1,67.1,29.96,SSE,160,4.0,4.0,100,0.08,, +RA,0.71,VWS V14.01,2013-07-30 10:16:00,
2013-07-30 05:17:00,67.1,67.1,29.96,ESE,114,3.1,5.4,100,0.08,, +RA,0.71,VWS V14.01,2013-07-30 10:17:00,
2013-07-30 05:18:00,67.1,67.1,29.96,SSE,153,3.1,6.3,100,0.08,, +RA,0.71,VWS V14.01,2013-07-30 10:18:00,
2013-07-30 05:19:00,67.1,67.1,29.96,ESE,120,4.0,6.7,100,0.08,, +RA,0.71,VWS V14.01,2013-07-30 10:19:00,
2013-07-30 05:22:00,67.1,67.1,29.96,SSE,149,5.8,6.3,100,0.04,, +RA,0.71,VWS V14.01,2013-07-30 10:22:00,
2013-07-30 05:23:00,67.1,67.1,29.96,SSE,168,4.0,6.3,100,0.04,, +RA,0.71,VWS V14.01,2013-07-30 10:23:00,
2013-07-30 05:24:00,67.1,67.1,29.96,ESE,119,2.7,4.5,100,0.04,, +RA,0.71,VWS V14.01,2013-07-30 10:24:00,
2013-07-30 05:28:00,67.1,67.1,29.99,SE,127,5.4,5.4,100,0.00,, +RA,0.71,VWS V14.01,2013-07-30 10:28:00,
2013-07-30 05:29:00,67.1,67.1,29.99,ESE,113,4.0,5.4,100,0.00,, +RA,0.71,VWS V14.01,2013-07-30 10:29:00,
2013-07-30 05:30:00,67.1,67.1,29.99,ESE,116,3.1,4.0,100,0.00,, +RA,0.71,VWS V14.01,2013-07-30 10:30:00,
2013-07-30 05:33:00,67.3,67.3,29.99,ESE,112,5.8,5.8,100,0.00,,RA,0.71,VWS V14.01,2013-07-30 10:33:00,
2013-07-30 05:34:00,67.3,67.3,29.99,SE,140,3.1,5.8,100,0.00,,RA,0.71,VWS V14.01,2013-07-30 10:34:00,
2013-07-30 05:35:00,67.3,67.3,29.99,ESE,112,7.6,7.6,100,0.00,,RA,0.71,VWS V14.01,2013-07-30 10:35:00,
2013-07-30 05:38:00,67.3,67.3,29.99,SE,136,4.9,5.8,100,0.00,,RA,0.71,VWS V14.01,2013-07-30 10:38:00,
2013-07-30 05:39:00,67.3,67.3,29.99,SSE,154,7.6,7.6,100,0.00,,RA,0.71,VWS V14.01,2013-07-30 10:39:00,
2013-07-30 05:40:00,67.3,67.3,29.99,ESE,113,5.8,7.6,100,0.00,,RA,0.71,VWS V14.01,2013-07-30 10:40:00,
2013-07-30 05:44:00,67.3,67.3,29.96,SSE,166,5.8,5.8,100,0.00,,RA,0.71,VWS V14.01,2013-07-30 10:44:00,
2013-07-30 05:45:00,67.3,67.3,29.96,SSE,152,6.3,8.3,100,0.00,,RA,0.71,VWS V14.01,2013-07-30 10:45:00,
2013-07-30 05:46:00,67.3,67.3,29.96,ESE,108,3.1,7.2,100,0.00,,RA,0.71,VWS V14.01,2013-07-30 10:46:00,
2013-07-30 05:49:00,67.3,67.3,29.96,SSE,158,5.4,5.8,100,0.00,,RA,0.71,VWS V14.01,2013-07-30 10:49:00,
2013-07-30 05:50:00,67.3,67.3,29.96,SSE,149,5.8,5.8,100,0.00,,RA,0.71,VWS V14.01,2013-07-30 10:50:00,
2013-07-30 05:51:00,67.3,67.3,29.96,ESE,106,3.6,5.8,100,0.00,,RA,0.71,VWS V14.01,2013-07-30 10:51:00,
2013-07-30 05:55:00,67.3,67.3,29.96,SE,140,3.6,4.9,100,0.00,,RA,0.71,VWS V14.01,2013-07-30 10:55:00,
2013-07-30 05:56:00,67.3,67.3,29.96,ESE,123,4.0,4.0,100,0.00,,RA,0.71,VWS V14.01,2013-07-30 10:56:00,
2013-07-30 05:57:00,67.3,67.3,29.99,ESE,119,3.6,4.0,100,0.00,,RA,0.71,VWS V14.01,2013-07-30 10:57:00,
2013-07-30 06:00:00,67.3,67.3,29.99,South,169,5.4,5.4,100,0.00,,RA,0.71,VWS V14.01,2013-07-30 11:00:00,
2013-07-30 06:02:00,67.3,67.3,29.99,SSE,158,6.3,8.3,100,0.00,,OVC031,0.71,VWS V14.01,2013-07-30 11:02:00,
2013-07-30 06:06:00,67.3,67.3,29.99,SE,139,2.7,6.3,100,0.00,,OVC031,0.71,VWS V14.01,2013-07-30 11:06:00,
2013-07-30 06:07:00,67.3,67.3,29.99,SSE,154,3.1,3.1,100,0.00,,OVC031,0.71,VWS V14.01,2013-07-30 11:07:00,
2013-07-30 06:08:00,67.3,67.3,29.99,SSE,147,4.9,8.1,100,0.00,,OVC031,0.71,VWS V14.01,2013-07-30 11:08:00,
2013-07-30 06:11:00,67.5,67.5,29.99,SE,142,8.7,8.7,100,0.00,,OVC031,0.71,VWS V14.01,2013-07-30 11:11:00,
2013-07-30 06:12:00,67.5,67.5,29.99,SE,143,3.1,3.6,100,0.00,,OVC031,0.71,VWS V14.01,2013-07-30 11:12:00,
2013-07-30 06:13:00,67.5,67.5,29.99,ESE,109,4.9,4.9,100,0.00,,OVC031,0.71,VWS V14.01,2013-07-30 11:13:00,
2013-07-30 06:16:00,67.5,67.5,29.99,SE,133,4.9,6.3,100,0.00,,OVC031,0.71,VWS V14.01,2013-07-30 11:16:00,
2013-07-30 06:17:00,67.5,67.5,29.99,SE,144,5.8,6.3,100,0.00,,OVC031,0.71,VWS V14.01,2013-07-30 11:17:00,
2013-07-30 06:18:00,67.5,67.5,29.99,South,170,3.1,7.6,100,0.00,,OVC031,0.71,VWS V14.01,2013-07-30 11:18:00,
2013-07-30 06:19:00,67.5,67.5,29.99,SSE,156,6.3,8.7,100,0.00,,OVC031,0.71,VWS V14.01,2013-07-30 11:19:00,
2013-07-30 06:21:00,67.5,67.5,29.99,SE,138,4.9,4.9,100,0.00,,OVC031,0.71,VWS V14.01,2013-07-30 11:21:00,
2013-07-30 06:22:00,67.5,67.5,29.99,SE,128,5.8,7.6,100,0.00,,OVC031,0.71,VWS V14.01,2013-07-30 11:22:00,
2013-07-30 06:23:00,67.5,67.5,29.99,SE,136,7.6,7.6,100,0.00,,OVC031,0.71,VWS V14.01,2013-07-30 11:23:00,
2013-07-30 06:24:00,67.6,67.6,29.99,SE,128,6.3,7.6,100,0.00,,OVC031,0.71,VWS V14.01,2013-07-30 11:24:00,
2013-07-30 06:26:00,67.6,67.6,29.99,South,175,4.0,5.8,100,0.00,,OVC031,0.71,VWS V14.01,2013-07-30 11:26:00,
2013-07-30 06:27:00,67.6,67.6,29.99,SE,141,2.7,5.8,100,0.00,,OVC031,0.71,VWS V14.01,2013-07-30 11:27:00,
2013-07-30 06:28:00,67.6,67.6,29.99,SE,129,2.7,3.1,100,0.00,,OVC031,0.71,VWS V14.01,2013-07-30 11:28:00,
2013-07-30 06:32:00,67.6,67.6,29.99,SE,125,4.9,5.8,100,0.00,,,0.71,VWS V14.01,2013-07-30 11:32:00,
2013-07-30 06:34:00,67.6,67.6,29.99,ESE,108,0.0,2.2,100,0.00,,,0.71,VWS V14.01,2013-07-30 11:34:00,
2013-07-30 06:37:00,67.6,67.6,29.99,SE,125,3.6,4.0,100,0.00,,,0.71,VWS V14.01,2013-07-30 11:37:00,
2013-07-30 06:38:00,67.6,67.6,29.99,SE,125,4.9,5.4,100,0.00,,,0.71,VWS V14.01,2013-07-30 11:38:00,
2013-07-30 06:39:00,67.6,67.6,29.99,South,171,3.1,5.4,100,0.00,,,0.71,VWS V14.01,2013-07-30 11:39:00,
2013-07-30 06:42:00,67.6,67.6,29.99,South,172,5.4,5.4,100,0.00,,,0.71,VWS V14.01,2013-07-30 11:42:00,
2013-07-30 06:44:00,67.6,67.6,29.99,South,175,5.4,5.4,100,0.00,,,0.71,VWS V14.01,2013-07-30 11:44:00,
2013-07-30 06:45:00,67.6,67.6,29.99,SE,145,0.0,0.0,100,0.00,,,0.71,VWS V14.01,2013-07-30 11:45:00,
2013-07-30 06:46:00,67.6,67.6,29.99,SE,145,0.0,0.0,100,0.00,,,0.71,VWS V14.01,2013-07-30 11:46:00,
2013-07-30 06:49:00,67.6,67.6,29.99,SSE,168,4.9,8.1,100,0.00,,,0.71,VWS V14.01,2013-07-30 11:49:00,
2013-07-30 06:50:00,67.6,67.6,29.99,SE,125,3.6,4.9,100,0.00,,,0.71,VWS V14.01,2013-07-30 11:50:00,
2013-07-30 06:52:00,67.6,67.6,29.99,SSE,151,4.9,4.9,100,0.00,,,0.71,VWS V14.01,2013-07-30 11:52:00,
2013-07-30 06:54:00,67.6,67.6,29.99,SSE,155,2.2,3.6,100,0.00,,,0.71,VWS V14.01,2013-07-30 11:54:00,
2013-07-30 06:55:00,67.6,67.6,29.99,SSE,152,2.7,3.6,100,0.00,,,0.71,VWS V14.01,2013-07-30 11:55:00,
2013-07-30 06:57:00,67.6,67.6,29.99,SSE,148,6.3,6.3,100,0.00,,,0.71,VWS V14.01,2013-07-30 11:57:00,
2013-07-30 07:00:00,67.6,67.6,29.99,SE,143,2.7,5.8,100,0.00,,,0.71,VWS V14.01,2013-07-30 12:00:00,
2013-07-30 07:03:00,67.6,67.6,29.99,SSE,153,3.1,3.1,100,0.00,,-RA,0.71,VWS V14.01,2013-07-30 12:03:00,
2013-07-30 07:06:00,67.8,67.8,29.99,South,181,3.6,5.8,100,0.00,,-RA,0.71,VWS V14.01,2013-07-30 12:06:00,
2013-07-30 07:08:00,67.8,67.8,29.99,SE,127,5.4,5.4,100,0.00,,-RA,0.71,VWS V14.01,2013-07-30 12:08:00,
2013-07-30 07:09:00,67.8,67.8,29.99,SE,131,4.0,5.8,100,0.00,,-RA,0.71,VWS V14.01,2013-07-30 12:09:00,
2013-07-30 07:12:00,67.8,67.8,29.99,SSE,165,4.0,5.8,100,0.00,,-RA,0.71,VWS V14.01,2013-07-30 12:12:00,
2013-07-30 07:13:00,67.8,67.8,29.99,SE,141,2.7,6.3,100,0.00,,-RA,0.71,VWS V14.01,2013-07-30 12:13:00,
2013-07-30 07:14:00,67.8,67.8,29.99,SE,136,4.9,4.9,100,0.00,,-RA,0.71,VWS V14.01,2013-07-30 12:14:00,
2013-07-30 07:15:00,67.8,67.8,29.99,SSE,159,2.7,4.9,100,0.00,,-RA,0.71,VWS V14.01,2013-07-30 12:15:00,
2013-07-30 07:18:00,67.8,67.8,29.99,SE,124,2.7,3.6,100,0.00,,-RA,0.71,VWS V14.01,2013-07-30 12:18:00,
2013-07-30 07:19:00,67.8,67.8,29.99,ESE,123,2.7,2.7,100,0.00,,-RA,0.71,VWS V14.01,2013-07-30 12:19:00,
2013-07-30 07:20:00,67.8,67.8,29.99,SE,138,0.0,2.7,100,0.00,,-RA,0.71,VWS V14.01,2013-07-30 12:20:00,
2013-07-30 07:23:00,67.8,67.8,29.99,SSE,151,0.0,3.6,100,0.00,,-RA,0.71,VWS V14.01,2013-07-30 12:23:00,
2013-07-30 07:24:00,67.8,67.8,29.99,ESE,123,2.7,3.6,100,0.00,,-RA,0.71,VWS V14.01,2013-07-30 12:24:00,
2013-07-30 07:25:00,67.8,67.8,29.99,SE,136,0.0,3.6,100,0.00,,-RA,0.71,VWS V14.01,2013-07-30 12:25:00,
2013-07-30 07:27:00,67.8,67.8,29.99,SSE,148,3.1,3.6,100,0.00,,-RA,0.71,VWS V14.01,2013-07-30 12:27:00,
2013-07-30 07:29:00,68.0,68.0,29.99,SSE,151,4.0,4.0,100,0.00,,-RA,0.71,VWS V14.01,2013-07-30 12:29:00,
2013-07-30 07:30:00,68.0,68.0,29.99,SSE,151,0.0,4.0,100,0.00,,-RA,0.71,VWS V14.01,2013-07-30 12:30:00,
2013-07-30 07:31:00,68.0,68.0,29.99,SE,134,4.0,4.0,100,0.00,,-RA,0.71,VWS V14.01,2013-07-30 12:31:00,
2013-07-30 07:33:00,68.0,68.0,29.99,SE,141,3.1,3.6,100,0.00,,-RA,0.71,VWS V14.01,2013-07-30 12:33:00,
2013-07-30 07:34:00,68.0,68.0,29.99,ESE,114,4.0,4.0,100,0.00,,-RA,0.71,VWS V14.01,2013-07-30 12:34:00,
2013-07-30 07:35:00,68.0,68.0,29.99,SSE,162,5.4,5.4,100,0.00,,-RA,0.71,VWS V14.01,2013-07-30 12:35:00,
2013-07-30 07:36:00,68.0,68.0,29.99,ESE,122,5.4,6.3,100,0.00,,-RA,0.71,VWS V14.01,2013-07-30 12:36:00,
2013-07-30 07:39:00,68.2,68.2,29.99,SE,142,5.8,7.2,100,0.00,,-RA,0.71,VWS V14.01,2013-07-30 12:39:00,
2013-07-30 07:40:00,68.2,68.2,29.99,South,171,0.0,6.3,100,0.00,,-RA,0.71,VWS V14.01,2013-07-30 12:40:00,
2013-07-30 07:41:00,68.2,68.2,29.99,SE,142,5.8,5.8,100,0.00,,-RA,0.71,VWS V14.01,2013-07-30 12:41:00,
2013-07-30 07:45:00,68.4,68.4,29.99,SSE,152,8.7,8.7,100,0.00,,-RA,0.71,VWS V14.01,2013-07-30 12:45:00,
2013-07-30 07:46:00,68.4,68.4,29.99,SSE,152,4.0,8.7,100,0.00,,-RA,0.71,VWS V14.01,2013-07-30 12:46:00,
2013-07-30 07:47:00,68.4,68.4,29.99,SSE,164,2.2,5.8,100,0.00,,-RA,0.71,VWS V14.01,2013-07-30 12:47:00,
2013-07-30 07:50:00,68.5,68.5,29.99,SSE,150,5.8,5.8,100,0.00,,-RA,0.71,VWS V14.01,2013-07-30 12:50:00,
2013-07-30 07:51:00,68.7,68.7,29.99,ESE,104,3.6,6.3,100,0.00,,-RA,0.71,VWS V14.01,2013-07-30 12:51:00,
2013-07-30 07:52:00,68.7,68.7,29.99,ESE,122,4.0,6.3,100,0.00,,-RA,0.71,VWS V14.01,2013-07-30 12:52:00,
2013-07-30 07:53:00,68.7,68.7,29.99,South,174,3.1,6.3,100,0.00,,-RA,0.71,VWS V14.01,2013-07-30 12:53:00,
2013-07-30 07:56:00,68.9,68.9,29.99,South,170,4.9,4.9,100,0.00,,-RA,0.71,VWS V14.01,2013-07-30 12:56:00,
2013-07-30 07:57:00,68.9,68.9,29.99,ESE,113,3.1,4.9,100,0.00,,-RA,0.71,VWS V14.01,2013-07-30 12:57:00,
2013-07-30 07:58:00,68.9,68.9,29.99,ESE,123,3.1,4.9,100,0.00,,-RA,0.71,VWS V14.01,2013-07-30 12:58:00,
2013-07-30 08:02:00,69.1,69.1,29.99,ESE,113,5.8,7.6,100,0.00,,-RA,0.71,VWS V14.01,2013-07-30 13:02:00,
2013-07-30 08:03:00,69.1,68.5,29.99,ESE,105,4.9,6.3,98,0.00,,-RA,0.71,VWS V14.01,2013-07-30 13:03:00,
2013-07-30 08:04:00,69.1,67.9,29.99,SE,131,5.8,5.8,96,0.00,,-RA,0.71,VWS V14.01,2013-07-30 13:04:00,
2013-07-30 08:07:00,69.3,66.8,29.99,SE,134,3.6,5.8,92,0.00,,-RA,0.71,VWS V14.01,2013-07-30 13:07:00,
2013-07-30 08:08:00,69.3,66.2,29.99,ESE,110,3.1,5.8,90,0.00,,-RA,0.71,VWS V14.01,2013-07-30 13:08:00,
2013-07-30 08:09:00,69.3,66.2,29.99,SE,130,3.6,5.8,90,0.00,,-RA,0.71,VWS V14.01,2013-07-30 13:09:00,
2013-07-30 08:12:00,69.3,65.6,29.99,SE,130,3.6,4.9,88,0.00,,-RA,0.71,VWS V14.01,2013-07-30 13:12:00,
2013-07-30 08:13:00,69.3,65.6,29.99,SE,126,2.7,3.6,88,0.00,,-RA,0.71,VWS V14.01,2013-07-30 13:13:00,
2013-07-30 08:14:00,69.3,65.6,29.99,SE,146,2.2,3.6,88,0.00,,-RA,0.71,VWS V14.01,2013-07-30 13:14:00,
2013-07-30 08:17:00,69.3,64.9,29.99,SE,146,5.4,5.4,86,0.00,,-RA,0.71,VWS V14.01,2013-07-30 13:17:00,
2013-07-30 08:18:00,69.3,64.9,29.99,SSE,156,3.1,5.4,86,0.00,,-RA,0.71,VWS V14.01,2013-07-30 13:18:00,
2013-07-30 08:19:00,69.3,64.9,29.99,SE,133,3.1,3.1,86,0.00,,-RA,0.71,VWS V14.01,2013-07-30 13:19:00,
2013-07-30 08:20:00,69.3,64.9,29.99,SE,144,4.0,4.0,86,0.00,,-RA,0.71,VWS V14.01,2013-07-30 13:20:00,
2013-07-30 08:23:00,69.3,64.9,29.99,South,173,4.0,7.2,86,0.00,,-RA,0.71,VWS V14.01,2013-07-30 13:23:00,
2013-07-30 08:25:00,69.3,64.9,29.99,ESE,104,2.7,4.9,86,0.00,,-RA,0.71,VWS V14.01,2013-07-30 13:25:00,
2013-07-30 08:26:00,69.3,64.9,29.99,SE,140,2.7,4.5,86,0.00,,-RA,0.71,VWS V14.01,2013-07-30 13:26:00,
2013-07-30 08:28:00,69.3,64.9,29.99,SE,136,4.0,8.3,86,0.00,,-RA,0.71,VWS V14.01,2013-07-30 13:28:00,
2013-07-30 08:29:00,69.3,64.9,29.99,SE,130,4.9,8.3,86,0.00,,-RA,0.71,VWS V14.01,2013-07-30 13:29:00,
2013-07-30 08:30:00,69.3,64.9,29.99,SE,126,5.4,5.4,86,0.00,,-RA,0.71,VWS V14.01,2013-07-30 13:30:00,
2013-07-30 08:32:00,69.3,64.9,29.99,SSE,151,5.4,5.4,86,0.00,,-RA,0.71,VWS V14.01,2013-07-30 13:32:00,
2013-07-30 08:33:00,69.4,65.1,29.99,SE,129,3.6,4.0,86,0.00,,-RA,0.71,VWS V14.01,2013-07-30 13:33:00,
2013-07-30 08:34:00,69.3,64.9,29.99,SE,145,4.9,8.1,86,0.00,,-RA,0.71,VWS V14.01,2013-07-30 13:34:00,
2013-07-30 08:35:00,69.3,64.9,29.99,SE,124,4.0,8.1,86,0.00,,-RA,0.71,VWS V14.01,2013-07-30 13:35:00,
2013-07-30 08:38:00,69.3,64.2,29.99,SSE,159,5.8,8.1,84,0.00,,-RA,0.71,VWS V14.01,2013-07-30 13:38:00,
2013-07-30 08:39:00,69.3,64.2,29.99,SSE,165,6.3,6.3,84,0.00,,-RA,0.71,VWS V14.01,2013-07-30 13:39:00,
2013-07-30 08:40:00,69.3,64.2,29.99,ESE,106,3.1,6.3,84,0.00,,-RA,0.71,VWS V14.01,2013-07-30 13:40:00,
2013-07-30 08:42:00,69.3,64.2,29.99,SSE,159,5.8,5.8,84,0.00,,-RA,0.71,VWS V14.01,2013-07-30 13:42:00,
2013-07-30 08:44:00,69.4,64.4,29.99,SE,146,8.1,8.1,84,0.00,,-RA,0.71,VWS V14.01,2013-07-30 13:44:00,
2013-07-30 08:45:00,69.4,64.4,29.99,SE,139,5.4,5.8,84,0.00,,-RA,0.71,VWS V14.01,2013-07-30 13:45:00,
2013-07-30 08:46:00,69.4,64.4,29.99,South,177,4.9,5.8,84,0.00,,-RA,0.71,VWS V14.01,2013-07-30 13:46:00,
2013-07-30 08:48:00,69.6,64.6,29.99,SSE,162,7.6,7.6,84,0.00,,-RA,0.71,VWS V14.01,2013-07-30 13:48:00,
2013-07-30 08:49:00,69.6,64.6,29.99,SSE,155,3.6,5.8,84,0.00,,-RA,0.71,VWS V14.01,2013-07-30 13:49:00,
2013-07-30 08:50:00,69.8,64.1,29.99,ESE,112,4.5,7.6,82,0.00,,-RA,0.71,VWS V14.01,2013-07-30 13:50:00,
2013-07-30 08:51:00,69.8,64.1,29.99,SE,142,3.6,7.6,82,0.00,,-RA,0.71,VWS V14.01,2013-07-30 13:51:00,
2013-07-30 08:52:00,69.8,64.1,29.99,SE,141,2.7,8.7,82,0.00,,-RA,0.71,VWS V14.01,2013-07-30 13:52:00,
2013-07-30 08:53:00,69.8,63.4,29.99,SSE,161,6.3,6.3,80,0.00,,-RA,0.71,VWS V14.01,2013-07-30 13:53:00,
2013-07-30 08:54:00,69.8,63.4,29.99,SSE,157,8.3,8.3,80,0.00,,-RA,0.71,VWS V14.01,2013-07-30 13:54:00,
2013-07-30 08:56:00,69.8,63.4,29.99,South,174,3.6,7.6,80,0.00,,-RA,0.71,VWS V14.01,2013-07-30 13:56:00,
2013-07-30 08:57:00,69.8,62.6,29.99,ESE,110,6.3,6.3,78,0.00,,-RA,0.71,VWS V14.01,2013-07-30 13:57:00,
2013-07-30 08:59:00,69.8,62.6,29.99,SE,137,7.6,8.7,78,0.00,,-RA,0.71,VWS V14.01,2013-07-30 13:59:00,
2013-07-30 09:01:00,70.0,62.1,29.99,ESE,123,2.7,8.7,76,0.00,,-RA,0.71,VWS V14.01,2013-07-30 14:01:00,
2013-07-30 09:02:00,70.0,62.1,29.99,SSE,166,5.4,5.4,76,0.00,,-RA,0.71,VWS V14.01,2013-07-30 14:02:00,
2013-07-30 09:04:00,70.2,62.2,29.99,SE,136,3.6,5.8,76,0.00,,-RA,0.71,VWS V14.01,2013-07-30 14:04:00,
2013-07-30 09:05:00,70.2,62.2,29.99,ESE,120,5.8,5.8,76,0.00,,-RA,0.71,VWS V14.01,2013-07-30 14:05:00,
2013-07-30 09:07:00,70.2,62.2,29.99,WSW,251,4.0,5.8,76,0.00,,-RA,0.71,VWS V14.01,2013-07-30 14:07:00,
2013-07-30 09:08:00,70.3,62.4,29.99,SE,136,5.4,5.4,76,0.00,,-RA,0.71,VWS V14.01,2013-07-30 14:08:00,
2013-07-30 09:09:00,70.3,62.4,29.99,SSE,158,8.1,8.1,76,0.00,,-RA,0.71,VWS V14.01,2013-07-30 14:09:00,
2013-07-30 09:11:00,70.3,61.7,29.99,SSE,150,4.9,6.3,74,0.00,,-RA,0.71,VWS V14.01,2013-07-30 14:11:00,
2013-07-30 09:12:00,70.5,61.8,29.99,SSE,166,6.3,6.3,74,0.00,,-RA,0.71,VWS V14.01,2013-07-30 14:12:00,
2013-07-30 09:14:00,70.7,62.0,29.99,SSE,151,4.0,4.0,74,0.00,,-RA,0.71,VWS V14.01,2013-07-30 14:14:00,
2013-07-30 09:16:00,70.9,61.4,29.99,SSE,164,8.3,8.3,72,0.00,,-RA,0.71,VWS V14.01,2013-07-30 14:16:00,
2013-07-30 09:18:00,71.4,61.9,29.99,SSE,152,4.9,5.8,72,0.00,,-RA,0.71,VWS V14.01,2013-07-30 14:18:00,
2013-07-30 09:19:00,71.4,61.9,29.99,SSE,155,3.6,6.3,72,0.00,,-RA,0.71,VWS V14.01,2013-07-30 14:19:00,
2013-07-30 09:21:00,71.6,61.3,29.99,ESE,119,8.1,8.1,70,0.00,,-RA,0.71,VWS V14.01,2013-07-30 14:21:00,
2013-07-30 09:24:00,71.8,60.7,29.99,SE,145,3.1,5.4,68,0.00,,-RA,0.71,VWS V14.01,2013-07-30 14:24:00,
2013-07-30 09:25:00,71.8,59.8,29.99,South,169,6.3,6.3,66,0.00,,-RA,0.71,VWS V14.01,2013-07-30 14:25:00,
2013-07-30 09:26:00,72.1,60.2,29.99,South,176,2.7,6.3,66,0.00,,-RA,0.71,VWS V14.01,2013-07-30 14:26:00,
2013-07-30 09:29:00,72.5,60.5,29.96,SE,126,3.6,5.8,66,0.00,,-RA,0.71,VWS V14.01,2013-07-30 14:29:00,
2013-07-30 09:30:00,72.5,60.5,29.96,East,83,2.2,5.8,66,0.00,,-RA,0.71,VWS V14.01,2013-07-30 14:30:00,
2013-07-30 09:31:00,72.9,60.0,29.96,SE,140,8.1,8.1,64,0.00,,-RA,0.71,VWS V14.01,2013-07-30 14:31:00,
2013-07-30 09:32:00,72.7,59.8,29.96,SE,132,8.1,8.1,64,0.00,,-RA,0.71,VWS V14.01,2013-07-30 14:32:00,
2013-07-30 09:34:00,72.7,58.9,29.96,SSE,162,6.3,7.2,62,0.00,,-RA,0.71,VWS V14.01,2013-07-30 14:34:00,
2013-07-30 09:35:00,72.7,58.9,29.96,SSE,150,4.9,7.2,62,0.00,,-RA,0.71,VWS V14.01,2013-07-30 14:35:00,
2013-07-30 09:37:00,72.7,58.9,29.96,SE,133,5.8,6.3,62,0.00,,-RA,0.71,VWS V14.01,2013-07-30 14:37:00,
2013-07-30 09:38:00,72.7,59.8,29.96,ESE,121,5.4,5.4,64,0.00,,-RA,0.71,VWS V14.01,2013-07-30 14:38:00,
2013-07-30 09:39:00,72.7,59.8,29.96,SSE,154,6.3,7.6,64,0.00,,-RA,0.71,VWS V14.01,2013-07-30 14:39:00,
2013-07-30 09:40:00,72.5,59.6,29.96,SSE,162,10.1,10.1,64,0.00,,-RA,0.71,VWS V14.01,2013-07-30 14:40:00,
2013-07-30 09:42:00,72.5,59.6,29.96,South,173,5.8,5.8,64,0.00,,-RA,0.71,VWS V14.01,2013-07-30 14:42:00,
2013-07-30 09:43:00,72.3,59.5,29.96,SSE,165,5.8,5.8,64,0.00,,-RA,0.71,VWS V14.01,2013-07-30 14:43:00,
2013-07-30 09:45:00,72.3,59.5,29.96,SE,133,2.7,7.6,64,0.00,,-RA,0.71,VWS V14.01,2013-07-30 14:45:00,
2013-07-30 09:48:00,72.3,59.5,29.96,SE,141,5.8,5.8,64,0.00,,-RA,0.71,VWS V14.01,2013-07-30 14:48:00,
2013-07-30 09:49:00,72.3,59.5,29.96,SSE,158,6.7,9.6,64,0.00,,-RA,0.71,VWS V14.01,2013-07-30 14:49:00,
2013-07-30 09:50:00,72.3,59.5,29.96,ESE,112,7.2,8.1,64,0.00,,-RA,0.71,VWS V14.01,2013-07-30 14:50:00,
2013-07-30 09:51:00,72.3,59.5,29.96,SSE,150,7.6,8.7,64,0.00,,-RA,0.71,VWS V14.01,2013-07-30 14:51:00,
2013-07-30 09:53:00,72.3,58.6,29.96,SSE,159,8.7,10.5,62,0.00,,-RA,0.71,VWS V14.01,2013-07-30 14:53:00,
2013-07-30 09:54:00,72.3,59.5,29.96,SSE,163,8.7,8.7,64,0.00,,-RA,0.71,VWS V14.01,2013-07-30 14:54:00,
2013-07-30 09:56:00,72.3,59.5,29.96,SSE,156,7.2,11.0,64,0.00,,-RA,0.71,VWS V14.01,2013-07-30 14:56:00,
2013-07-30 09:58:00,72.5,58.8,29.96,South,169,2.7,8.3,62,0.00,,-RA,0.71,VWS V14.01,2013-07-30 14:58:00,
2013-07-30 10:00:00,72.5,59.6,29.96,SSE,155,10.1,10.1,64,0.00,,-RA,0.71,VWS V14.01,2013-07-30 15:00:00,
2013-07-30 10:01:00,72.5,59.6,29.96,SSE,162,8.7,8.7,64,0.00,,OVC021,0.71,VWS V14.01,2013-07-30 15:01:00,
2013-07-30 10:03:00,72.9,60.0,29.96,SE,130,6.3,6.3,64,0.00,,OVC021,0.71,VWS V14.01,2013-07-30 15:03:00,
2013-07-30 10:04:00,72.9,60.0,29.96,SSE,164,4.9,4.9,64,0.00,,OVC021,0.71,VWS V14.01,2013-07-30 15:04:00,
2013-07-30 10:05:00,73.0,59.3,29.96,SSE,155,2.7,2.7,62,0.00,,OVC021,0.71,VWS V14.01,2013-07-30 15:05:00,
2013-07-30 10:06:00,73.0,59.3,29.96,South,177,3.6,5.8,62,0.00,,OVC021,0.71,VWS V14.01,2013-07-30 15:06:00,
2013-07-30 10:09:00,73.4,58.7,29.96,SSE,167,2.7,7.2,60,0.00,,OVC021,0.71,VWS V14.01,2013-07-30 15:09:00,
2013-07-30 10:10:00,73.8,59.0,29.96,SE,146,4.0,6.3,60,0.00,,OVC021,0.71,VWS V14.01,2013-07-30 15:10:00,
2013-07-30 10:12:00,73.9,59.2,29.96,SSW,206,4.9,6.3,60,0.00,,OVC021,0.71,VWS V14.01,2013-07-30 15:12:00,
2013-07-30 10:13:00,73.9,58.2,29.96,South,176,4.9,4.9,58,0.00,,OVC021,0.71,VWS V14.01,2013-07-30 15:13:00,
2013-07-30 10:14:00,74.1,57.4,29.96,South,175,6.3,6.3,56,0.00,,OVC021,0.71,VWS V14.01,2013-07-30 15:14:00,
2013-07-30 10:17:00,74.5,55.7,29.96,SE,139,7.6,7.6,52,0.00,,OVC021,0.71,VWS V14.01,2013-07-30 15:17:00,
2013-07-30 10:19:00,74.5,54.6,29.96,SE,125,5.4,5.4,50,0.00,,OVC021,0.71,VWS V14.01,2013-07-30 15:19:00,
2013-07-30 10:22:00,74.1,53.2,29.96,SSE,156,4.0,8.1,48,0.00,,OVC021,0.71,VWS V14.01,2013-07-30 15:22:00,
2013-07-30 10:24:00,74.1,54.3,29.96,South,179,6.3,8.1,50,0.00,,OVC021,0.71,VWS V14.01,2013-07-30 15:24:00,
2013-07-30 10:25:00,74.1,54.3,29.96,SE,129,6.7,8.1,50,0.00,,OVC021,0.71,VWS V14.01,2013-07-30 15:25:00,
2013-07-30 10:27:00,73.9,54.2,29.96,SSE,158,3.6,10.5,50,0.00,,OVC021,0.71,VWS V14.01,2013-07-30 15:27:00,
2013-07-30 10:28:00,73.9,54.2,29.96,South,172,4.0,8.3,50,0.00,,OVC021,0.71,VWS V14.01,2013-07-30 15:28:00,
2013-07-30 10:30:00,73.9,54.2,29.96,South,178,7.6,7.6,50,0.00,,OVC021,0.71,VWS V14.01,2013-07-30 15:30:00,
2013-07-30 10:31:00,73.8,55.1,29.96,SE,142,7.6,7.6,52,0.00,,OVC021,0.71,VWS V14.01,2013-07-30 15:31:00,
2013-07-30 10:32:00,73.8,54.0,29.96,SE,124,5.8,7.6,50,0.00,,OVC021,0.71,VWS V14.01,2013-07-30 15:32:00,
2013-07-30 10:35:00,73.6,54.9,29.96,SE,138,6.3,8.3,52,0.00,,OVC021,0.71,VWS V14.01,2013-07-30 15:35:00,
2013-07-30 10:36:00,73.4,54.7,29.96,SSE,156,5.8,8.3,52,0.00,,OVC021,0.71,VWS V14.01,2013-07-30 15:36:00,
2013-07-30 10:37:00,73.4,53.7,29.96,SSE,154,5.8,5.8,50,0.00,,OVC021,0.71,VWS V14.01,2013-07-30 15:37:00,
2013-07-30 10:38:00,73.4,54.7,29.96,SSE,153,4.0,5.8,52,0.00,,OVC021,0.71,VWS V14.01,2013-07-30 15:38:00,
2013-07-30 10:40:00,73.4,55.8,29.96,SE,135,5.8,5.8,54,0.00,,OVC021,0.71,VWS V14.01,2013-07-30 15:40:00,
2013-07-30 10:41:00,73.4,55.8,29.96,SE,138,7.6,7.6,54,0.00,,OVC021,0.71,VWS V14.01,2013-07-30 15:41:00,
2013-07-30 10:42:00,73.4,55.8,29.96,SSE,152,6.3,7.6,54,0.00,,OVC021,0.71,VWS V14.01,2013-07-30 15:42:00,
2013-07-30 10:43:00,73.4,55.8,29.96,SE,144,8.1,8.1,54,0.00,,OVC021,0.71,VWS V14.01,2013-07-30 15:43:00,
2013-07-30 10:45:00,73.6,54.9,29.96,SE,138,4.9,5.8,52,0.00,,OVC021,0.71,VWS V14.01,2013-07-30 15:45:00,
2013-07-30 10:46:00,73.6,55.9,29.96,SSE,160,8.7,8.7,54,0.00,,OVC021,0.71,VWS V14.01,2013-07-30 15:46:00,
2013-07-30 10:48:00,73.8,55.1,29.96,SSE,159,5.8,6.3,52,0.00,,OVC021,0.71,VWS V14.01,2013-07-30 15:48:00,
2013-07-30 10:51:00,74.3,54.5,29.96,SSE,153,7.6,7.6,50,0.00,,OVC021,0.71,VWS V14.01,2013-07-30 15:51:00,
2013-07-30 10:53:00,74.5,54.6,29.96,SSE,149,5.4,8.3,50,0.00,,OVC021,0.71,VWS V14.01,2013-07-30 15:53:00,
2013-07-30 10:54:00,74.7,53.7,29.96,SSE,161,7.6,7.6,48,0.00,,OVC021,0.71,VWS V14.01,2013-07-30 15:54:00,
2013-07-30 10:55:00,74.8,55.0,29.96,South,183,7.6,8.7,50,0.00,,OVC021,0.71,VWS V14.01,2013-07-30 15:55:00,
2013-07-30 10:56:00,75.0,54.0,29.96,SE,131,5.8,8.3,48,0.00,,OVC021,0.71,VWS V14.01,2013-07-30 15:56:00,
2013-07-30 10:59:00,75.4,53.2,29.96,SE,135,3.6,5.8,46,0.00,,OVC021,0.71,VWS V14.01,2013-07-30 15:59:00,
2013-07-30 11:00:00,75.4,53.2,29.96,South,178,5.8,10.5,46,0.00,,OVC021,0.71,VWS V14.01,2013-07-30 16:00:00,
2013-07-30 11:02:00,75.7,52.3,29.96,South,189,5.8,5.8,44,0.00,,OVC100,0.71,VWS V14.01,2013-07-30 16:02:00,
2013-07-30 11:04:00,75.7,52.3,29.96,South,180,5.4,5.8,44,0.00,,OVC100,0.71,VWS V14.01,2013-07-30 16:04:00,
2013-07-30 11:05:00,75.7,52.3,29.96,South,180,5.4,5.8,44,0.00,,OVC100,0.71,VWS V14.01,2013-07-30 16:05:00,
2013-07-30 11:06:00,75.7,52.3,29.96,South,191,7.6,8.7,44,0.00,,OVC100,0.71,VWS V14.01,2013-07-30 16:06:00,
2013-07-30 11:07:00,75.7,52.3,29.96,South,177,4.9,7.6,44,0.00,,OVC100,0.71,VWS V14.01,2013-07-30 16:07:00,
2013-07-30 11:08:00,75.7,52.3,29.96,SSE,155,4.0,7.6,44,0.00,,OVC100,0.71,VWS V14.01,2013-07-30 16:08:00,
2013-07-30 11:10:00,76.5,53.0,29.96,SE,131,2.7,6.3,44,0.00,,OVC100,0.71,VWS V14.01,2013-07-30 16:10:00,
2013-07-30 11:12:00,76.5,53.0,29.96,SSE,152,8.7,8.7,44,0.00,,OVC100,0.71,VWS V14.01,2013-07-30 16:12:00,
2013-07-30 11:13:00,76.3,51.5,29.96,SSW,211,8.3,10.1,42,0.00,,OVC100,0.71,VWS V14.01,2013-07-30 16:13:00,
2013-07-30 11:15:00,77.0,52.2,29.96,SE,126,5.4,6.7,42,0.00,,OVC100,0.71,VWS V14.01,2013-07-30 16:15:00,
2013-07-30 11:16:00,77.0,52.2,29.96,SE,131,4.9,6.3,42,0.00,,OVC100,0.71,VWS V14.01,2013-07-30 16:16:00,
2013-07-30 11:17:00,77.2,52.3,29.96,SSE,164,3.6,6.3,42,0.00,,OVC100,0.71,VWS V14.01,2013-07-30 16:17:00,
2013-07-30 11:18:00,77.2,52.3,29.96,South,187,8.7,8.7,42,0.00,,OVC100,0.71,VWS V14.01,2013-07-30 16:18:00,
2013-07-30 11:21:00,77.2,52.3,29.96,South,179,8.7,8.7,42,0.00,,OVC100,0.71,VWS V14.01,2013-07-30 16:21:00,
2013-07-30 11:22:00,77.2,51.0,29.96,SE,128,7.6,8.7,40,0.00,,OVC100,0.71,VWS V14.01,2013-07-30 16:22:00,
2013-07-30 11:23:00,77.2,51.0,29.96,SE,141,5.8,8.7,40,0.00,,OVC100,0.71,VWS V14.01,2013-07-30 16:23:00,
2013-07-30 11:24:00,77.2,51.0,29.96,ESE,110,3.1,8.7,40,0.00,,OVC100,0.71,VWS V14.01,2013-07-30 16:24:00,
2013-07-30 11:27:00,77.4,52.5,29.96,ESE,118,4.9,6.3,42,0.00,,OVC100,0.71,VWS V14.01,2013-07-30 16:27:00,
2013-07-30 11:28:00,77.5,52.7,29.96,SE,139,3.6,8.1,42,0.00,,OVC100,0.71,VWS V14.01,2013-07-30 16:28:00,
2013-07-30 11:29:00,77.7,52.8,29.96,SSE,157,5.4,8.1,42,0.00,,OVC100,0.71,VWS V14.01,2013-07-30 16:29:00,
2013-07-30 11:32:00,77.9,53.0,29.96,SSW,208,7.6,8.1,42,0.00,,OVC037,0.71,VWS V14.01,2013-07-30 16:32:00,
2013-07-30 11:33:00,77.9,51.7,29.96,South,185,7.6,8.1,40,0.00,,OVC037,0.71,VWS V14.01,2013-07-30 16:33:00,
2013-07-30 11:34:00,77.9,53.0,29.96,SSW,195,3.6,8.1,42,0.00,,OVC037,0.71,VWS V14.01,2013-07-30 16:34:00,
2013-07-30 11:37:00,77.9,51.7,29.96,South,176,10.5,10.5,40,0.00,,OVC037,0.71,VWS V14.01,2013-07-30 16:37:00,
2013-07-30 11:38:00,77.9,53.0,29.96,SSE,167,8.3,8.3,42,0.00,,OVC037,0.71,VWS V14.01,2013-07-30 16:38:00,
2013-07-30 11:39:00,77.7,51.5,29.96,SSE,149,7.6,11.0,40,0.00,,OVC037,0.71,VWS V14.01,2013-07-30 16:39:00,
2013-07-30 11:40:00,77.7,52.8,29.96,SSE,149,9.2,11.0,42,0.00,,OVC037,0.71,VWS V14.01,2013-07-30 16:40:00,
2013-07-30 11:42:00,77.9,53.0,29.96,SSW,205,8.3,8.3,42,0.00,,OVC037,0.71,VWS V14.01,2013-07-30 16:42:00,
2013-07-30 11:43:00,78.3,53.3,29.96,SSE,165,6.3,8.1,42,0.00,,OVC037,0.71,VWS V14.01,2013-07-30 16:43:00,
2013-07-30 11:45:00,78.1,53.2,29.96,SSE,158,5.4,8.7,42,0.00,,OVC037,0.71,VWS V14.01,2013-07-30 16:45:00,
2013-07-30 11:46:00,78.4,53.5,29.96,SE,130,8.3,8.3,42,0.00,,OVC037,0.71,VWS V14.01,2013-07-30 16:46:00,
2013-07-30 11:48:00,78.6,52.3,29.96,South,176,5.4,8.3,40,0.00,,OVC037,0.71,VWS V14.01,2013-07-30 16:48:00,
2013-07-30 11:50:00,79.2,52.8,29.96,SSW,194,8.1,10.5,40,0.00,,OVC037,0.71,VWS V14.01,2013-07-30 16:50:00,
2013-07-30 11:51:00,79.2,52.8,29.96,SSW,209,8.7,8.7,40,0.00,,OVC037,0.71,VWS V14.01,2013-07-30 16:51:00,
2013-07-30 11:52:00,79.2,52.8,29.96,South,191,10.5,10.5,40,0.00,,OVC037,0.71,VWS V14.01,2013-07-30 16:52:00,
2013-07-30 11:54:00,79.3,53.0,29.96,South,189,8.1,11.0,40,0.00,,OVC037,0.71,VWS V14.01,2013-07-30 16:54:00,
2013-07-30 11:55:00,79.7,53.3,29.96,SSW,192,8.1,11.0,40,0.00,,OVC037,0.71,VWS V14.01,2013-07-30 16:55:00,
2013-07-30 11:56:00,79.7,53.3,29.96,SSE,160,8.3,8.3,40,0.00,,OVC037,0.71,VWS V14.01,2013-07-30 16:56:00,
2013-07-30 11:58:00,79.5,53.1,29.96,South,179,6.3,6.3,40,0.00,,OVC037,0.71,VWS V14.01,2013-07-30 16:58:00,
2013-07-30 11:59:00,79.5,53.1,29.96,SSE,167,7.6,7.6,40,0.00,,OVC037,0.71,VWS V14.01,2013-07-30 16:59:00,
2013-07-30 12:00:00,79.2,52.8,29.96,South,187,9.2,9.2,40,0.00,,OVC037,0.71,VWS V14.01,2013-07-30 17:00:00,
2013-07-30 12:01:00,79.0,52.6,29.96,South,179,8.3,9.2,40,0.00,,OVC060,0.71,VWS V14.01,2013-07-30 17:01:00,
2013-07-30 12:03:00,78.4,52.1,29.96,SSE,157,8.7,8.7,40,0.00,,OVC060,0.71,VWS V14.01,2013-07-30 17:03:00,
2013-07-30 12:04:00,78.3,52.0,29.96,SSE,167,3.6,8.7,40,0.00,,OVC060,0.71,VWS V14.01,2013-07-30 17:04:00,
2013-07-30 12:06:00,77.9,51.7,29.96,SE,146,5.8,5.8,40,0.00,,OVC060,0.71,VWS V14.01,2013-07-30 17:06:00,
2013-07-30 12:08:00,77.5,51.3,29.96,South,180,5.8,5.8,40,0.00,,OVC060,0.71,VWS V14.01,2013-07-30 17:08:00,
2013-07-30 12:09:00,77.4,51.2,29.96,SSE,159,6.7,8.7,40,0.00,,OVC060,0.71,VWS V14.01,2013-07-30 17:09:00,
2013-07-30 12:10:00,77.4,51.2,29.96,SSE,151,4.5,6.3,40,0.00,,OVC060,0.71,VWS V14.01,2013-07-30 17:10:00,
2013-07-30 12:11:00,77.5,51.3,29.96,SSE,164,4.0,6.3,40,0.00,,OVC060,0.71,VWS V14.01,2013-07-30 17:11:00,
2013-07-30 12:12:00,77.5,52.7,29.93,SSE,164,4.0,10.1,42,0.00,,OVC060,0.71,VWS V14.01,2013-07-30 17:12:00,
2013-07-30 12:14:00,77.7,52.8,29.93,SSE,154,6.3,6.3,42,0.00,,OVC060,0.71,VWS V14.01,2013-07-30 17:14:00,
2013-07-30 12:15:00,77.7,51.5,29.93,SSE,164,8.1,8.1,40,0.00,,OVC060,0.71,VWS V14.01,2013-07-30 17:15:00,
2013-07-30 12:18:00,78.8,52.5,29.93,SE,146,7.6,7.6,40,0.00,,OVC060,0.71,VWS V14.01,2013-07-30 17:18:00,
2013-07-30 12:20:00,79.0,52.6,29.93,SE,138,6.3,8.1,40,0.00,,OVC060,0.71,VWS V14.01,2013-07-30 17:20:00,
2013-07-30 12:23:00,79.0,52.6,29.93,SSE,153,6.3,7.6,40,0.00,,OVC060,0.71,VWS V14.01,2013-07-30 17:23:00,
2013-07-30 12:25:00,79.3,53.0,29.93,SSE,159,7.6,8.7,40,0.00,,OVC060,0.71,VWS V14.01,2013-07-30 17:25:00,
2013-07-30 12:29:00,80.6,54.1,29.96,SSE,160,5.8,7.2,40,0.00,,OVC060,0.71,VWS V14.01,2013-07-30 17:29:00,
2013-07-30 12:30:00,80.8,49.8,29.96,SSW,202,4.0,5.4,34,0.00,,OVC060,0.71,VWS V14.01,2013-07-30 17:30:00,
2013-07-30 12:31:00,80.6,49.7,29.96,SSE,161,8.1,8.1,34,0.00,,OVC033,0.71,VWS V14.01,2013-07-30 17:31:00,
2013-07-30 12:32:00,80.8,49.8,29.96,SSE,155,3.1,8.1,34,0.00,,OVC033,0.71,VWS V14.01,2013-07-30 17:32:00,
2013-07-30 12:34:00,80.4,49.5,29.96,SSW,210,5.8,6.3,34,0.00,,OVC033,0.71,VWS V14.01,2013-07-30 17:34:00,
2013-07-30 12:35:00,80.2,49.3,29.96,SE,144,4.0,8.7,34,0.00,,OVC033,0.71,VWS V14.01,2013-07-30 17:35:00,
2013-07-30 12:37:00,80.1,49.2,29.96,SSE,166,2.7,2.7,34,0.00,,OVC033,0.71,VWS V14.01,2013-07-30 17:37:00,
2013-07-30 12:38:00,79.9,49.0,29.96,SSE,156,3.1,5.8,34,0.00,,OVC033,0.71,VWS V14.01,2013-07-30 17:38:00,
2013-07-30 12:39:00,79.7,48.9,29.96,SSW,204,4.9,5.8,34,0.00,,OVC033,0.71,VWS V14.01,2013-07-30 17:39:00,
2013-07-30 12:40:00,79.5,48.7,29.96,South,188,6.3,6.3,34,0.00,,OVC033,0.71,VWS V14.01,2013-07-30 17:40:00,
2013-07-30 12:42:00,79.2,48.4,29.96,SSE,156,4.9,6.3,34,0.00,,OVC033,0.71,VWS V14.01,2013-07-30 17:42:00,
2013-07-30 12:43:00,79.2,48.4,29.96,South,191,4.5,5.8,34,0.00,,OVC033,0.71,VWS V14.01,2013-07-30 17:43:00,
2013-07-30 12:45:00,78.6,52.3,29.96,SSE,164,8.1,8.1,40,0.00,,OVC033,0.71,VWS V14.01,2013-07-30 17:45:00,
2013-07-30 12:46:00,78.4,52.1,29.96,SSE,164,5.8,8.1,40,0.00,,OVC033,0.71,VWS V14.01,2013-07-30 17:46:00,
2013-07-30 12:47:00,78.3,52.0,29.96,South,171,4.0,5.8,40,0.00,,OVC033,0.71,VWS V14.01,2013-07-30 17:47:00,
2013-07-30 12:48:00,77.9,51.7,29.96,SSE,164,4.9,4.9,40,0.00,,OVC033,0.71,VWS V14.01,2013-07-30 17:48:00,
2013-07-30 12:49:00,77.9,51.7,29.96,SSE,164,4.9,4.9,40,0.00,,OVC033,0.71,VWS V14.01,2013-07-30 17:49:00,
2013-07-30 12:52:00,77.5,52.7,29.96,South,179,5.8,5.8,42,0.00,,OVC033,0.71,VWS V14.01,2013-07-30 17:52:00,
2013-07-30 12:54:00,77.5,52.7,29.96,South,189,2.7,4.9,42,0.00,,OVC033,0.71,VWS V14.01,2013-07-30 17:54:00,
2013-07-30 12:55:00,77.4,52.5,29.96,SSE,161,5.4,8.1,42,0.00,,OVC033,0.71,VWS V14.01,2013-07-30 17:55:00,
2013-07-30 12:57:00,77.4,52.5,29.93,SE,144,3.1,4.0,42,0.00,,OVC033,0.71,VWS V14.01,2013-07-30 17:57:00,
2013-07-30 12:58:00,77.4,52.5,29.93,SSE,158,4.0,4.9,42,0.00,,OVC033,0.71,VWS V14.01,2013-07-30 17:58:00,
2013-07-30 12:59:00,77.4,52.5,29.93,SSE,168,2.2,2.7,42,0.00,,OVC033,0.71,VWS V14.01,2013-07-30 17:59:00,
2013-07-30 13:00:00,77.2,52.3,29.93,SSE,148,2.7,3.1,42,0.00,,OVC033,0.71,VWS V14.01,2013-07-30 18:00:00,
2013-07-30 13:03:00,77.0,52.2,29.93,South,179,6.3,8.1,42,0.00,,OVC019,0.71,VWS V14.01,2013-07-30 18:03:00,
2013-07-30 13:04:00,77.0,52.2,29.93,South,169,5.8,7.6,42,0.00,,OVC019,0.71,VWS V14.01,2013-07-30 18:04:00,
2013-07-30 13:05:00,77.0,52.2,29.93,SE,145,3.6,4.5,42,0.00,,OVC019,0.71,VWS V14.01,2013-07-30 18:05:00,
2013-07-30 13:06:00,76.8,52.0,29.93,SSE,157,5.4,5.8,42,0.00,,OVC019,0.71,VWS V14.01,2013-07-30 18:06:00,
2013-07-30 13:08:00,76.8,52.0,29.93,SSE,159,5.4,5.4,42,0.00,,OVC019,0.71,VWS V14.01,2013-07-30 18:08:00,
2013-07-30 13:09:00,76.8,52.0,29.93,SE,138,2.7,3.6,42,0.00,,OVC019,0.71,VWS V14.01,2013-07-30 18:09:00,
2013-07-30 13:10:00,77.0,52.2,29.93,SSE,156,4.5,4.5,42,0.00,,OVC019,0.71,VWS V14.01,2013-07-30 18:10:00,
2013-07-30 13:11:00,77.0,52.2,29.93,SSE,157,4.9,4.9,42,0.00,,OVC019,0.71,VWS V14.01,2013-07-30 18:11:00,
2013-07-30 13:12:00,77.2,52.3,29.93,SSW,205,4.0,4.0,42,0.00,,OVC019,0.71,VWS V14.01,2013-07-30 18:12:00,
2013-07-30 13:14:00,77.5,52.7,29.93,SE,142,2.2,6.3,42,0.00,,OVC019,0.71,VWS V14.01,2013-07-30 18:14:00,
2013-07-30 13:15:00,77.5,52.7,29.93,South,169,4.0,6.3,42,0.00,,OVC019,0.71,VWS V14.01,2013-07-30 18:15:00,
2013-07-30 13:17:00,77.9,53.0,29.93,SE,137,4.0,7.6,42,0.00,,OVC019,0.71,VWS V14.01,2013-07-30 18:17:00,
2013-07-30 13:19:00,78.4,53.5,29.93,South,172,3.1,3.1,42,0.00,,OVC019,0.71,VWS V14.01,2013-07-30 18:19:00,
2013-07-30 13:20:00,79.0,52.6,29.93,SSE,161,2.7,4.0,40,0.00,,OVC019,0.71,VWS V14.01,2013-07-30 18:20:00,
2013-07-30 13:22:00,79.3,53.0,29.93,SSE,148,5.4,5.4,40,0.00,,OVC019,0.71,VWS V14.01,2013-07-30 18:22:00,
2013-07-30 13:23:00,79.7,53.3,29.93,SSE,151,4.0,5.4,40,0.00,,OVC019,0.71,VWS V14.01,2013-07-30 18:23:00,
2013-07-30 13:25:00,80.2,53.8,29.93,South,173,4.0,4.0,40,0.00,,OVC019,0.71,VWS V14.01,2013-07-30 18:25:00,
2013-07-30 13:26:00,80.6,52.7,29.93,SE,134,3.6,5.4,38,0.00,,OVC019,0.71,VWS V14.01,2013-07-30 18:26:00,
2013-07-30 13:28:00,80.8,49.8,29.93,SSE,159,3.1,5.4,34,0.00,,OVC019,0.71,VWS V14.01,2013-07-30 18:28:00,
2013-07-30 13:29:00,81.0,50.0,29.93,SSE,156,2.7,5.8,34,0.00,,OVC019,0.71,VWS V14.01,2013-07-30 18:29:00,
2013-07-30 13:30:00,81.1,50.1,29.93,SSE,150,3.6,3.6,34,0.00,,OVC019,0.71,VWS V14.01,2013-07-30 18:30:00,
2013-07-30 13:31:00,81.1,50.1,29.93,SE,144,5.4,5.4,34,0.00,,OVC019,0.71,VWS V14.01,2013-07-30 18:31:00,
2013-07-30 13:33:00,81.0,50.0,29.93,ESE,108,3.6,3.6,34,0.00,,OVC019,0.71,VWS V14.01,2013-07-30 18:33:00,
2013-07-30 13:34:00,81.0,50.0,29.93,SE,145,5.8,5.8,34,0.00,,OVC019,0.71,VWS V14.01,2013-07-30 18:34:00,
2013-07-30 13:36:00,81.0,50.0,29.93,SSE,160,3.1,3.1,34,0.00,,OVC019,0.71,VWS V14.01,2013-07-30 18:36:00,
2013-07-30 13:38:00,81.0,50.0,29.93,SSE,161,7.6,7.6,34,0.00,,OVC019,0.71,VWS V14.01,2013-07-30 18:38:00,
2013-07-30 13:39:00,80.8,49.8,29.93,SE,125,6.3,6.3,34,0.00,,OVC019,0.71,VWS V14.01,2013-07-30 18:39:00,
2013-07-30 13:41:00,80.8,49.8,29.93,SSE,147,4.0,5.4,34,0.00,,OVC019,0.71,VWS V14.01,2013-07-30 18:41:00,
2013-07-30 13:42:00,80.8,49.8,29.93,ESE,123,3.1,5.4,34,0.00,,OVC019,0.71,VWS V14.01,2013-07-30 18:42:00,
2013-07-30 13:43:00,80.6,49.7,29.93,SSE,165,5.4,8.3,34,0.00,,OVC019,0.71,VWS V14.01,2013-07-30 18:43:00,
2013-07-30 13:44:00,80.6,49.7,29.93,SE,140,3.6,5.8,34,0.00,,OVC019,0.71,VWS V14.01,2013-07-30 18:44:00,
2013-07-30 13:45:00,80.6,49.7,29.93,ESE,119,3.6,3.6,34,0.00,,OVC019,0.71,VWS V14.01,2013-07-30 18:45:00,
2013-07-30 13:46:00,80.6,49.7,29.93,SE,146,4.0,4.5,34,0.00,,OVC019,0.71,VWS V14.01,2013-07-30 18:46:00,
2013-07-30 13:48:00,80.6,49.7,29.93,SSW,193,9.6,9.6,34,0.00,,OVC019,0.71,VWS V14.01,2013-07-30 18:48:00,
2013-07-30 13:49:00,80.4,53.9,29.93,SSE,167,7.2,7.2,40,0.00,,OVC019,0.71,VWS V14.01,2013-07-30 18:49:00,
2013-07-30 13:50:00,80.1,49.2,29.93,SSE,153,7.6,8.3,34,0.00,,OVC019,0.71,VWS V14.01,2013-07-30 18:50:00,
2013-07-30 13:53:00,79.5,48.7,29.93,SSE,153,8.3,8.7,34,0.00,,OVC019,0.71,VWS V14.01,2013-07-30 18:53:00,
2013-07-30 13:55:00,79.5,48.7,29.93,SSE,156,7.6,8.7,34,0.00,,OVC019,0.71,VWS V14.01,2013-07-30 18:55:00,
2013-07-30 13:56:00,79.3,53.0,29.93,SSE,161,6.3,7.6,40,0.00,,OVC019,0.71,VWS V14.01,2013-07-30 18:56:00,
2013-07-30 13:58:00,79.5,53.1,29.93,South,172,5.4,5.4,40,0.00,,OVC019,0.71,VWS V14.01,2013-07-30 18:58:00,
2013-07-30 14:00:00,79.5,53.1,29.93,SSE,168,6.3,6.3,40,0.00,,OVC019,0.71,VWS V14.01,2013-07-30 19:00:00,
2013-07-30 14:02:00,79.5,53.1,29.93,ESE,108,2.7,2.7,40,0.00,,OVC015,0.71,VWS V14.01,2013-07-30 19:02:00,
2013-07-30 14:04:00,79.5,53.1,29.93,SE,138,6.3,6.3,40,0.00,,OVC015,0.71,VWS V14.01,2013-07-30 19:04:00,
2013-07-30 14:06:00,79.7,53.3,29.93,South,173,4.0,6.7,40,0.00,,OVC015,0.71,VWS V14.01,2013-07-30 19:06:00,
2013-07-30 14:08:00,79.7,53.3,29.93,SSE,162,7.6,8.1,40,0.00,,OVC015,0.71,VWS V14.01,2013-07-30 19:08:00,
2013-07-30 14:09:00,79.7,53.3,29.93,South,172,5.8,6.3,40,0.00,,OVC015,0.71,VWS V14.01,2013-07-30 19:09:00,
2013-07-30 14:10:00,79.7,53.3,29.93,South,171,6.3,6.3,40,0.00,,OVC015,0.71,VWS V14.01,2013-07-30 19:10:00,
2013-07-30 14:12:00,79.7,53.3,29.93,SSE,160,5.8,5.8,40,0.00,,OVC015,0.71,VWS V14.01,2013-07-30 19:12:00,
2013-07-30 14:13:00,79.7,53.3,29.93,SSE,158,6.3,6.3,40,0.00,,OVC015,0.71,VWS V14.01,2013-07-30 19:13:00,
2013-07-30 14:14:00,79.9,53.4,29.93,SSE,164,5.4,6.3,40,0.00,,OVC015,0.71,VWS V14.01,2013-07-30 19:14:00,
2013-07-30 14:15:00,79.9,53.4,29.93,South,171,5.4,5.8,40,0.00,,OVC015,0.71,VWS V14.01,2013-07-30 19:15:00,
2013-07-30 14:18:00,79.9,53.4,29.93,South,172,4.9,4.9,40,0.00,,OVC015,0.71,VWS V14.01,2013-07-30 19:18:00,
2013-07-30 14:19:00,79.9,53.4,29.93,East,97,2.7,4.9,40,0.00,,OVC015,0.71,VWS V14.01,2013-07-30 19:19:00,
2013-07-30 14:20:00,79.9,53.4,29.93,SE,128,5.4,5.4,40,0.00,,OVC015,0.71,VWS V14.01,2013-07-30 19:20:00,
2013-07-30 14:22:00,79.7,53.3,29.93,South,174,5.8,5.8,40,0.00,,OVC015,0.71,VWS V14.01,2013-07-30 19:22:00,
2013-07-30 14:23:00,79.7,53.3,29.93,South,186,6.7,6.7,40,0.00,,OVC015,0.71,VWS V14.01,2013-07-30 19:23:00,
2013-07-30 14:24:00,79.7,53.3,29.93,SSE,162,6.7,6.7,40,0.00,,OVC015,0.71,VWS V14.01,2013-07-30 19:24:00,
2013-07-30 14:25:00,79.7,53.3,29.93,SSE,160,5.8,6.7,40,0.00,,OVC015,0.71,VWS V14.01,2013-07-30 19:25:00,
2013-07-30 14:28:00,79.7,53.3,29.93,SE,143,5.4,5.8,40,0.00,,OVC015,0.71,VWS V14.01,2013-07-30 19:28:00,
2013-07-30 14:30:00,80.1,53.6,29.93,SSE,147,2.7,4.9,40,0.00,,OVC015,0.71,VWS V14.01,2013-07-30 19:30:00,
2013-07-30 14:31:00,80.1,53.6,29.93,SSE,161,8.1,8.1,40,0.00,,OVC013,0.71,VWS V14.01,2013-07-30 19:31:00,
2013-07-30 14:33:00,80.4,53.9,29.93,SSE,166,4.9,5.4,40,0.00,,OVC013,0.71,VWS V14.01,2013-07-30 19:33:00,
2013-07-30 14:34:00,80.6,52.7,29.93,SSW,194,4.0,6.3,38,0.00,,OVC013,0.71,VWS V14.01,2013-07-30 19:34:00,
2013-07-30 14:35:00,80.6,49.7,29.93,South,174,5.4,6.3,34,0.00,,OVC013,0.71,VWS V14.01,2013-07-30 19:35:00,
2013-07-30 14:36:00,80.8,49.8,29.93,SSE,149,3.1,3.1,34,0.00,,OVC013,0.71,VWS V14.01,2013-07-30 19:36:00,
2013-07-30 14:37:00,80.8,49.8,29.93,South,173,4.0,4.0,34,0.00,,OVC013,0.71,VWS V14.01,2013-07-30 19:37:00,
2013-07-30 14:38:00,81.0,50.0,29.93,SE,137,3.6,4.9,34,0.00,,OVC013,0.71,VWS V14.01,2013-07-30 19:38:00,
2013-07-30 14:39:00,80.8,49.8,29.93,SSE,148,6.3,6.3,34,0.00,,OVC013,0.71,VWS V14.01,2013-07-30 19:39:00,
2013-07-30 14:40:00,80.8,49.8,29.93,SSE,147,3.6,3.6,34,0.00,,OVC013,0.71,VWS V14.01,2013-07-30 19:40:00,
2013-07-30 14:41:00,80.8,49.8,29.93,South,180,3.6,4.9,34,0.00,,OVC013,0.71,VWS V14.01,2013-07-30 19:41:00,
2013-07-30 14:42:00,80.8,49.8,29.90,South,173,6.3,6.3,34,0.00,,OVC013,0.71,VWS V14.01,2013-07-30 19:42:00,
2013-07-30 14:43:00,80.8,49.8,29.90,SSW,192,3.6,3.6,34,0.00,,OVC013,0.71,VWS V14.01,2013-07-30 19:43:00,
2013-07-30 14:45:00,80.6,49.7,29.90,SSE,166,2.7,2.7,34,0.00,,OVC013,0.71,VWS V14.01,2013-07-30 19:45:00,
2013-07-30 14:46:00,80.4,49.5,29.90,SSE,165,3.6,4.0,34,0.00,,OVC013,0.71,VWS V14.01,2013-07-30 19:46:00,
2013-07-30 14:47:00,80.6,49.7,29.90,SE,133,4.0,5.4,34,0.00,,OVC013,0.71,VWS V14.01,2013-07-30 19:47:00,
2013-07-30 14:48:00,80.6,49.7,29.90,South,179,6.3,6.3,34,0.00,,OVC013,0.71,VWS V14.01,2013-07-30 19:48:00,
2013-07-30 14:49:00,80.6,49.7,29.90,SSW,193,7.2,7.2,34,0.00,,OVC013,0.71,VWS V14.01,2013-07-30 19:49:00,
2013-07-30 14:51:00,80.6,49.7,29.90,South,191,5.8,6.3,34,0.00,,OVC013,0.71,VWS V14.01,2013-07-30 19:51:00,
2013-07-30 14:52:00,80.6,49.7,29.90,South,181,6.3,6.3,34,0.00,,OVC013,0.71,VWS V14.01,2013-07-30 19:52:00,
2013-07-30 14:53:00,80.6,49.7,29.90,SSE,160,6.3,6.3,34,0.00,,OVC013,0.71,VWS V14.01,2013-07-30 19:53:00,
2013-07-30 14:54:00,80.6,52.7,29.90,South,173,3.6,3.6,38,0.00,,OVC013,0.71,VWS V14.01,2013-07-30 19:54:00,
2013-07-30 14:56:00,80.6,49.7,29.90,ESE,109,3.1,6.7,34,0.00,,OVC013,0.71,VWS V14.01,2013-07-30 19:56:00,
2013-07-30 14:57:00,80.8,49.8,29.93,SSE,148,5.4,5.4,34,0.00,,OVC013,0.71,VWS V14.01,2013-07-30 19:57:00,
2013-07-30 14:58:00,81.0,50.0,29.93,SSE,155,5.4,5.4,34,0.00,,OVC013,0.71,VWS V14.01,2013-07-30 19:58:00,
2013-07-30 14:59:00,81.0,50.0,29.93,ESE,113,3.1,6.3,34,0.00,,OVC013,0.71,VWS V14.01,2013-07-30 19:59:00,
2013-07-30 15:01:00,81.1,50.1,29.93,SE,146,3.1,5.4,34,0.00,,OVC019,0.71,VWS V14.01,2013-07-30 20:01:00,
2013-07-30 15:02:00,81.3,50.3,29.93,ESE,120,2.2,2.7,34,0.00,,OVC019,0.71,VWS V14.01,2013-07-30 20:02:00,
2013-07-30 15:03:00,81.3,50.3,29.93,SSE,164,3.1,3.6,34,0.00,,OVC019,0.71,VWS V14.01,2013-07-30 20:03:00,
2013-07-30 15:04:00,81.3,50.3,29.93,SSE,155,4.0,5.4,34,0.00,,OVC019,0.71,VWS V14.01,2013-07-30 20:04:00,
2013-07-30 15:06:00,81.3,50.3,29.93,SSE,161,5.4,5.4,34,0.00,,OVC019,0.71,VWS V14.01,2013-07-30 20:06:00,
2013-07-30 15:07:00,81.3,50.3,29.93,SSE,155,5.4,5.4,34,0.00,,OVC019,0.71,VWS V14.01,2013-07-30 20:07:00,
2013-07-30 15:09:00,81.1,50.1,29.93,South,177,2.7,6.3,34,0.00,,OVC019,0.71,VWS V14.01,2013-07-30 20:09:00,
2013-07-30 15:10:00,81.0,50.0,29.93,South,170,2.7,2.7,34,0.00,,OVC019,0.71,VWS V14.01,2013-07-30 20:10:00,
2013-07-30 15:12:00,81.0,50.0,29.90,SE,142,2.7,4.9,34,0.00,,OVC019,0.71,VWS V14.01,2013-07-30 20:12:00,
2013-07-30 15:13:00,80.8,49.8,29.90,SSE,151,3.1,3.6,34,0.00,,OVC019,0.71,VWS V14.01,2013-07-30 20:13:00,
2013-07-30 15:14:00,80.8,49.8,29.90,ESE,112,3.1,4.0,34,0.00,,OVC019,0.71,VWS V14.01,2013-07-30 20:14:00,
2013-07-30 15:15:00,81.0,50.0,29.90,SE,144,3.6,4.0,34,0.00,,OVC019,0.71,VWS V14.01,2013-07-30 20:15:00,
2013-07-30 15:17:00,81.3,50.3,29.90,SSE,149,2.2,3.1,34,0.00,,OVC019,0.71,VWS V14.01,2013-07-30 20:17:00,
2013-07-30 15:18:00,81.5,50.5,29.90,SSE,154,6.3,7.6,34,0.00,,OVC019,0.71,VWS V14.01,2013-07-30 20:18:00,
2013-07-30 15:19:00,81.5,50.5,29.90,SSE,154,3.1,3.1,34,0.00,,OVC019,0.71,VWS V14.01,2013-07-30 20:19:00,
2013-07-30 15:20:00,81.7,50.6,29.90,SSE,149,2.2,4.9,34,0.00,,OVC019,0.71,VWS V14.01,2013-07-30 20:20:00,
2013-07-30 15:21:00,81.9,50.8,29.90,ESE,104,4.0,4.0,34,0.00,,OVC019,0.71,VWS V14.01,2013-07-30 20:21:00,
2013-07-30 15:22:00,81.9,50.8,29.90,ESE,107,2.2,2.7,34,0.00,,OVC019,0.71,VWS V14.01,2013-07-30 20:22:00,
2013-07-30 15:23:00,82.0,50.9,29.90,SSE,154,3.6,4.9,34,0.00,,OVC019,0.71,VWS V14.01,2013-07-30 20:23:00,
2013-07-30 15:24:00,82.2,51.1,29.90,ESE,121,3.1,3.1,34,0.00,,OVC019,0.71,VWS V14.01,2013-07-30 20:24:00,
2013-07-30 15:26:00,82.2,51.1,29.90,South,186,6.3,6.3,34,0.00,,OVC019,0.71,VWS V14.01,2013-07-30 20:26:00,
2013-07-30 15:30:00,81.9,50.8,29.90,SSE,159,6.3,6.3,34,0.00,,OVC019,0.71,VWS V14.01,2013-07-30 20:30:00,
2013-07-30 15:31:00,81.9,50.8,29.90,South,176,4.0,6.3,34,0.00,,OVC020,0.71,VWS V14.01,2013-07-30 20:31:00,
2013-07-30 15:32:00,81.9,50.8,29.90,SSW,193,5.8,6.3,34,0.00,,OVC020,0.71,VWS V14.01,2013-07-30 20:32:00,
2013-07-30 15:35:00,81.9,50.8,29.90,South,180,5.4,7.6,34,0.00,,OVC020,0.71,VWS V14.01,2013-07-30 20:35:00,
2013-07-30 15:36:00,81.7,50.6,29.90,SSW,205,6.3,7.6,34,0.00,,OVC020,0.71,VWS V14.01,2013-07-30 20:36:00,
2013-07-30 15:37:00,81.7,50.6,29.90,South,175,6.3,6.3,34,0.00,,OVC020,0.71,VWS V14.01,2013-07-30 20:37:00,
2013-07-30 15:38:00,81.7,50.6,29.90,SSW,196,5.8,6.3,34,0.00,,OVC020,0.71,VWS V14.01,2013-07-30 20:38:00,
2013-07-30 15:40:00,81.7,50.6,29.90,SSE,165,7.6,8.1,34,0.00,,OVC020,0.71,VWS V14.01,2013-07-30 20:40:00,
2013-07-30 15:41:00,81.5,50.5,29.90,SSE,147,6.7,6.7,34,0.00,,OVC020,0.71,VWS V14.01,2013-07-30 20:41:00,
2013-07-30 15:42:00,81.5,50.5,29.90,SSE,161,3.1,5.8,34,0.00,,OVC020,0.71,VWS V14.01,2013-07-30 20:42:00,
2013-07-30 15:43:00,81.5,50.5,29.90,South,170,2.7,6.3,34,0.00,,OVC020,0.71,VWS V14.01,2013-07-30 20:43:00,
2013-07-30 15:46:00,81.3,50.3,29.90,South,178,3.1,3.6,34,0.00,,OVC020,0.71,VWS V14.01,2013-07-30 20:46:00,
2013-07-30 15:47:00,81.3,50.3,29.90,South,176,4.0,4.0,34,0.00,,OVC020,0.71,VWS V14.01,2013-07-30 20:47:00,
2013-07-30 15:48:00,81.1,50.1,29.90,SSE,164,3.6,5.4,34,0.00,,OVC020,0.71,VWS V14.01,2013-07-30 20:48:00,
2013-07-30 15:52:00,81.3,50.3,29.90,WSW,237,4.0,4.0,34,0.00,,OVC020,0.71,VWS V14.01,2013-07-30 20:52:00,
2013-07-30 15:53:00,81.3,50.3,29.90,SW,235,4.0,4.0,34,0.00,,OVC020,0.71,VWS V14.01,2013-07-30 20:53:00,
2013-07-30 15:57:00,81.5,50.5,29.90,South,183,3.6,3.6,34,0.00,,OVC020,0.71,VWS V14.01,2013-07-30 20:57:00,
2013-07-30 15:58:00,81.7,50.6,29.90,South,188,4.9,4.9,34,0.00,,OVC020,0.71,VWS V14.01,2013-07-30 20:58:00,
2013-07-30 15:59:00,81.7,50.6,29.90,SSW,193,4.0,4.9,34,0.00,,OVC020,0.71,VWS V14.01,2013-07-30 20:59:00,
2013-07-30 16:03:00,82.0,50.9,29.90,South,181,0.0,0.0,34,0.00,,OVC021,0.71,VWS V14.01,2013-07-30 21:03:00,
2013-07-30 16:04:00,82.4,49.6,29.90,South,181,0.0,0.0,32,0.00,,OVC021,0.71,VWS V14.01,2013-07-30 21:04:00,
2013-07-30 16:05:00,82.6,49.8,29.90,South,181,0.0,0.0,32,0.00,,OVC021,0.71,VWS V14.01,2013-07-30 21:05:00,
2013-07-30 16:08:00,83.5,47.0,29.90,South,181,0.0,0.0,28,0.00,,OVC021,0.71,VWS V14.01,2013-07-30 21:08:00,
2013-07-30 16:09:00,83.8,47.3,29.90,SW,229,2.2,2.7,28,0.00,,OVC021,0.71,VWS V14.01,2013-07-30 21:09:00,
2013-07-30 16:10:00,84.0,47.4,29.90,SW,229,2.7,2.7,28,0.00,,OVC021,0.71,VWS V14.01,2013-07-30 21:10:00,
2013-07-30 16:13:00,84.6,45.9,29.90,SW,229,0.0,0.0,26,0.00,,OVC021,0.71,VWS V14.01,2013-07-30 21:13:00,
2013-07-30 16:15:00,85.3,46.5,29.90,SW,232,3.6,3.6,26,0.00,,OVC021,0.71,VWS V14.01,2013-07-30 21:15:00,
2013-07-30 16:18:00,86.7,47.8,29.90,SW,229,0.0,0.0,26,0.00,,OVC021,0.71,VWS V14.01,2013-07-30 21:18:00,
2013-07-30 16:19:00,87.1,48.1,29.90,SW,229,0.0,0.0,26,0.00,,OVC021,0.71,VWS V14.01,2013-07-30 21:19:00,
2013-07-30 16:20:00,87.3,48.2,29.90,SW,229,0.0,0.0,26,0.00,,OVC021,0.71,VWS V14.01,2013-07-30 21:20:00,
2013-07-30 16:21:00,87.3,43.8,29.90,SSW,197,4.0,4.0,22,0.00,,OVC021,0.71,VWS V14.01,2013-07-30 21:21:00,
2013-07-30 16:23:00,87.6,44.1,29.90,SSW,197,0.0,2.7,22,0.00,,OVC021,0.71,VWS V14.01,2013-07-30 21:23:00,
2013-07-30 16:24:00,87.4,44.0,29.90,SE,144,0.0,4.0,22,0.00,,OVC021,0.71,VWS V14.01,2013-07-30 21:24:00,
2013-07-30 16:25:00,87.4,44.0,29.90,SE,145,0.0,0.0,22,0.00,,OVC021,0.71,VWS V14.01,2013-07-30 21:25:00,
2013-07-30 16:27:00,87.3,43.8,29.90,SSE,150,4.0,4.0,22,0.00,,OVC021,0.71,VWS V14.01,2013-07-30 21:27:00,
2013-07-30 16:29:00,87.1,43.7,29.90,South,180,0.0,0.0,22,0.00,,OVC021,0.71,VWS V14.01,2013-07-30 21:29:00,
2013-07-30 16:31:00,86.5,43.2,29.90,SSE,149,3.6,3.6,22,0.00,,OVC021,0.71,VWS V14.01,2013-07-30 21:31:00,
2013-07-30 16:32:00,86.4,43.1,29.90,ESE,110,3.1,3.6,22,0.00,,OVC021,0.71,VWS V14.01,2013-07-30 21:32:00,
2013-07-30 16:33:00,86.2,42.9,29.90,ENE,75,2.2,3.1,22,0.00,,OVC021,0.71,VWS V14.01,2013-07-30 21:33:00,
2013-07-30 16:34:00,85.6,42.5,29.90,SE,129,4.0,4.0,22,0.00,,OVC021,0.71,VWS V14.01,2013-07-30 21:34:00,
2013-07-30 16:37:00,85.1,42.0,29.90,SSE,152,4.9,4.9,22,0.00,,OVC021,0.71,VWS V14.01,2013-07-30 21:37:00,
2013-07-30 16:38:00,84.9,41.9,29.90,SSE,153,0.0,0.0,22,0.00,,OVC021,0.71,VWS V14.01,2013-07-30 21:38:00,
2013-07-30 16:40:00,84.7,41.7,29.90,SSE,153,0.0,0.0,22,0.00,,OVC021,0.71,VWS V14.01,2013-07-30 21:40:00,
2013-07-30 16:42:00,84.6,41.6,29.90,SSE,151,0.0,0.0,22,0.00,,OVC021,0.71,VWS V14.01,2013-07-30 21:42:00,
2013-07-30 16:43:00,84.6,41.6,29.90,SE,139,2.7,2.7,22,0.00,,OVC021,0.71,VWS V14.01,2013-07-30 21:43:00,
2013-07-30 16:46:00,84.7,41.7,29.90,SE,138,0.0,0.0,22,0.00,,OVC021,0.71,VWS V14.01,2013-07-30 21:46:00,
2013-07-30 16:47:00,84.9,46.2,29.90,SE,138,0.0,0.0,26,0.00,,OVC021,0.71,VWS V14.01,2013-07-30 21:47:00,
2013-07-30 16:48:00,84.9,41.9,29.90,SE,139,0.0,0.0,22,0.00,,OVC021,0.71,VWS V14.01,2013-07-30 21:48:00,
2013-07-30 16:49:00,84.9,41.9,29.90,SE,138,0.0,0.0,22,0.00,,OVC021,0.71,VWS V14.01,2013-07-30 21:49:00,
2013-07-30 16:51:00,85.1,42.0,29.90,SE,139,0.0,0.0,22,0.00,,OVC021,0.71,VWS V14.01,2013-07-30 21:51:00,
2013-07-30 16:53:00,85.3,42.2,29.90,SE,139,0.0,0.0,22,0.00,,OVC021,0.71,VWS V14.01,2013-07-30 21:53:00,
2013-07-30 16:54:00,85.3,42.2,29.90,SE,138,0.0,0.0,22,0.00,,OVC021,0.71,VWS V14.01,2013-07-30 21:54:00,
2013-07-30 16:56:00,85.8,42.6,29.90,SE,139,0.0,0.0,22,0.00,,OVC021,0.71,VWS V14.01,2013-07-30 21:56:00,
2013-07-30 16:58:00,86.7,43.4,29.90,SE,138,0.0,0.0,22,0.00,,OVC021,0.71,VWS V14.01,2013-07-30 21:58:00,
2013-07-30 16:59:00,86.9,43.5,29.90,SE,138,0.0,0.0,22,0.00,,OVC021,0.71,VWS V14.01,2013-07-30 21:59:00,
2013-07-30 17:00:00,86.9,43.5,29.90,SE,138,0.0,0.0,22,0.00,,OVC021,0.71,VWS V14.01,2013-07-30 22:00:00,
2013-07-30 17:03:00,87.1,43.7,29.90,SE,139,0.0,0.0,22,0.00,,OVC023,0.71,VWS V14.01,2013-07-30 22:03:00,
2013-07-30 17:04:00,87.3,43.8,29.90,SE,138,0.0,0.0,22,0.00,,OVC023,0.71,VWS V14.01,2013-07-30 22:04:00,
2013-07-30 17:05:00,87.1,43.7,29.90,SE,138,0.0,0.0,22,0.00,,OVC023,0.71,VWS V14.01,2013-07-30 22:05:00,
2013-07-30 17:07:00,87.4,44.0,29.90,SE,138,0.0,0.0,22,0.00,,OVC023,0.71,VWS V14.01,2013-07-30 22:07:00,
2013-07-30 17:09:00,87.4,44.0,29.90,SE,138,2.2,3.6,22,0.00,,OVC023,0.71,VWS V14.01,2013-07-30 22:09:00,
2013-07-30 17:10:00,87.6,44.1,29.90,SE,138,0.0,0.0,22,0.00,,OVC023,0.71,VWS V14.01,2013-07-30 22:10:00,
2013-07-30 17:13:00,87.8,41.8,29.90,SE,138,0.0,0.0,20,0.00,,OVC023,0.71,VWS V14.01,2013-07-30 22:13:00,
2013-07-30 17:14:00,87.6,44.1,29.90,SE,139,0.0,0.0,22,0.00,,OVC023,0.71,VWS V14.01,2013-07-30 22:14:00,
2013-07-30 17:15:00,87.3,43.8,29.90,SE,138,0.0,0.0,22,0.00,,OVC023,0.71,VWS V14.01,2013-07-30 22:15:00,
2013-07-30 17:16:00,87.3,43.8,29.90,SE,138,0.0,0.0,22,0.00,,OVC023,0.71,VWS V14.01,2013-07-30 22:16:00,
2013-07-30 17:19:00,87.1,43.7,29.90,SE,138,0.0,0.0,22,0.00,,OVC023,0.71,VWS V14.01,2013-07-30 22:19:00,
2013-07-30 17:21:00,86.9,43.5,29.90,SE,132,0.0,0.0,22,0.00,,OVC023,0.71,VWS V14.01,2013-07-30 22:21:00,
2013-07-30 17:22:00,86.7,43.4,29.90,SE,132,0.0,0.0,22,0.00,,OVC023,0.71,VWS V14.01,2013-07-30 22:22:00,
2013-07-30 17:24:00,86.5,43.2,29.90,SE,132,0.0,0.0,22,0.00,,OVC023,0.71,VWS V14.01,2013-07-30 22:24:00,
2013-07-30 17:25:00,86.5,43.2,29.90,SE,133,0.0,0.0,22,0.00,,OVC023,0.71,VWS V14.01,2013-07-30 22:25:00,
2013-07-30 17:27:00,86.4,43.1,29.90,SE,132,0.0,0.0,22,0.00,,OVC023,0.71,VWS V14.01,2013-07-30 22:27:00,
2013-07-30 17:28:00,86.2,42.9,29.90,SE,132,0.0,0.0,22,0.00,,OVC023,0.71,VWS V14.01,2013-07-30 22:28:00,
2013-07-30 17:29:00,86.0,42.8,29.90,SE,132,0.0,0.0,22,0.00,,OVC023,0.71,VWS V14.01,2013-07-30 22:29:00,
2013-07-30 17:30:00,85.8,42.6,29.90,SE,132,0.0,0.0,22,0.00,,OVC023,0.71,VWS V14.01,2013-07-30 22:30:00,
2013-07-30 17:33:00,85.3,42.2,29.90,SE,133,0.0,0.0,22,0.00,,OVC023,0.71,VWS V14.01,2013-07-30 22:33:00,
2013-07-30 17:34:00,85.1,42.0,29.90,East,97,3.6,3.6,22,0.00,,OVC023,0.71,VWS V14.01,2013-07-30 22:34:00,
2013-07-30 17:35:00,85.1,42.0,29.90,East,97,0.0,3.6,22,0.00,,OVC023,0.71,VWS V14.01,2013-07-30 22:35:00,
2013-07-30 17:39:00,84.4,41.4,29.90,East,97,0.0,0.0,22,0.00,,OVC023,0.71,VWS V14.01,2013-07-30 22:39:00,
2013-07-30 17:40:00,84.4,41.4,29.90,East,97,0.0,0.0,22,0.00,,OVC023,0.71,VWS V14.01,2013-07-30 22:40:00,
2013-07-30 17:41:00,84.2,41.3,29.90,East,97,0.0,0.0,22,0.00,,OVC023,0.71,VWS V14.01,2013-07-30 22:41:00,
2013-07-30 17:42:00,84.2,41.3,29.90,East,97,0.0,0.0,22,0.00,,OVC023,0.71,VWS V14.01,2013-07-30 22:42:00,
2013-07-30 17:45:00,83.7,40.8,29.90,East,97,0.0,0.0,22,0.00,,OVC023,0.71,VWS V14.01,2013-07-30 22:45:00,
2013-07-30 17:46:00,83.5,40.7,29.90,East,97,0.0,0.0,22,0.00,,OVC023,0.71,VWS V14.01,2013-07-30 22:46:00,
2013-07-30 17:47:00,83.3,40.5,29.90,East,97,0.0,0.0,22,0.00,,OVC023,0.71,VWS V14.01,2013-07-30 22:47:00,
2013-07-30 17:50:00,82.9,40.2,29.90,East,97,0.0,0.0,22,0.00,,OVC023,0.71,VWS V14.01,2013-07-30 22:50:00,
2013-07-30 17:51:00,82.8,40.1,29.90,East,85,0.0,0.0,22,0.00,,OVC023,0.71,VWS V14.01,2013-07-30 22:51:00,
2013-07-30 17:53:00,82.4,46.1,29.90,NE,36,0.0,2.2,28,0.00,,OVC023,0.71,VWS V14.01,2013-07-30 22:53:00,
2013-07-30 17:54:00,82.4,46.1,29.90,NE,36,0.0,0.0,28,0.00,,OVC023,0.71,VWS V14.01,2013-07-30 22:54:00,
2013-07-30 17:55:00,82.2,45.9,29.90,NE,36,0.0,0.0,28,0.00,,OVC023,0.71,VWS V14.01,2013-07-30 22:55:00,
2013-07-30 17:56:00,82.2,45.9,29.90,NE,36,0.0,0.0,28,0.00,,OVC023,0.71,VWS V14.01,2013-07-30 22:56:00,
2013-07-30 17:58:00,82.2,45.9,29.90,NE,36,0.0,0.0,28,0.00,,OVC023,0.71,VWS V14.01,2013-07-30 22:58:00,
2013-07-30 17:59:00,82.2,45.9,29.90,NE,36,0.0,0.0,28,0.00,,OVC023,0.71,VWS V14.01,2013-07-30 22:59:00,
2013-07-30 18:00:00,82.2,45.9,29.90,NE,36,0.0,0.0,28,0.00,,OVC023,0.71,VWS V14.01,2013-07-30 23:00:00,
2013-07-30 18:01:00,82.2,45.9,29.90,NE,36,0.0,0.0,28,0.00,,OVC023,0.71,VWS V14.01,2013-07-30 23:01:00,
2013-07-30 18:02:00,82.2,45.9,29.90,NE,36,0.0,0.0,28,0.00,,OVC023,0.71,VWS V14.01,2013-07-30 23:02:00,
2013-07-30 18:04:00,82.0,45.8,29.90,NE,36,0.0,0.0,28,0.00,,OVC023,0.71,VWS V14.01,2013-07-30 23:04:00,
2013-07-30 18:05:00,82.0,45.8,29.90,NE,36,0.0,0.0,28,0.00,,OVC023,0.71,VWS V14.01,2013-07-30 23:05:00,
2013-07-30 18:07:00,81.9,45.6,29.90,East,90,2.2,3.6,28,0.00,,OVC023,0.71,VWS V14.01,2013-07-30 23:07:00,
2013-07-30 18:08:00,81.9,45.6,29.90,East,90,0.0,2.7,28,0.00,,OVC023,0.71,VWS V14.01,2013-07-30 23:08:00,
2013-07-30 18:10:00,81.5,45.3,29.90,East,92,0.0,2.7,28,0.00,,OVC023,0.71,VWS V14.01,2013-07-30 23:10:00,
2013-07-30 18:11:00,81.3,45.1,29.90,East,91,0.0,3.1,28,0.00,,OVC023,0.71,VWS V14.01,2013-07-30 23:11:00,
2013-07-30 18:13:00,81.1,45.0,29.90,East,91,0.0,0.0,28,0.00,,OVC023,0.71,VWS V14.01,2013-07-30 23:13:00,
2013-07-30 18:14:00,81.0,44.8,29.90,East,91,0.0,0.0,28,0.00,,OVC023,0.71,VWS V14.01,2013-07-30 23:14:00,
2013-07-30 18:15:00,81.0,44.8,29.90,East,91,0.0,0.0,28,0.00,,OVC023,0.71,VWS V14.01,2013-07-30 23:15:00,
2013-07-30 18:18:00,80.8,44.7,29.90,East,91,0.0,0.0,28,0.00,,OVC023,0.71,VWS V14.01,2013-07-30 23:18:00,
2013-07-30 18:20:00,80.6,49.7,29.90,East,91,0.0,0.0,34,0.00,,OVC023,0.71,VWS V14.01,2013-07-30 23:20:00,
2013-07-30 18:22:00,80.2,49.3,29.90,East,91,0.0,0.0,34,0.00,,OVC023,0.71,VWS V14.01,2013-07-30 23:22:00,
2013-07-30 18:23:00,80.2,49.3,29.90,East,91,0.0,0.0,34,0.00,,OVC023,0.71,VWS V14.01,2013-07-30 23:23:00,
2013-07-30 18:24:00,80.1,49.2,29.90,East,91,0.0,0.0,34,0.00,,OVC023,0.71,VWS V14.01,2013-07-30 23:24:00,
2013-07-30 18:25:00,80.1,49.2,29.90,East,91,0.0,0.0,34,0.00,,OVC023,0.71,VWS V14.01,2013-07-30 23:25:00,
2013-07-30 18:26:00,80.1,49.2,29.90,East,91,0.0,0.0,34,0.00,,OVC023,0.71,VWS V14.01,2013-07-30 23:26:00,
2013-07-30 18:28:00,79.9,49.0,29.90,East,91,0.0,0.0,34,0.00,,OVC023,0.71,VWS V14.01,2013-07-30 23:28:00,
2013-07-30 18:29:00,79.9,49.0,29.90,East,91,0.0,0.0,34,0.00,,OVC023,0.71,VWS V14.01,2013-07-30 23:29:00,
2013-07-30 18:32:00,79.5,53.1,29.90,East,91,0.0,0.0,40,0.00,,OVC023,0.71,VWS V14.01,2013-07-30 23:32:00,
2013-07-30 18:33:00,79.5,53.1,29.90,East,91,0.0,0.0,40,0.00,,OVC023,0.71,VWS V14.01,2013-07-30 23:33:00,
2013-07-30 18:34:00,79.3,53.0,29.90,East,91,0.0,0.0,40,0.00,,OVC023,0.71,VWS V14.01,2013-07-30 23:34:00,
2013-07-30 18:38:00,79.2,52.8,29.90,East,91,0.0,0.0,40,0.00,,OVC023,0.71,VWS V14.01,2013-07-30 23:38:00,
2013-07-30 18:39:00,79.0,52.6,29.90,East,91,0.0,0.0,40,0.00,,OVC023,0.71,VWS V14.01,2013-07-30 23:39:00,
2013-07-30 18:40:00,79.0,52.6,29.90,East,91,0.0,0.0,40,0.00,,OVC023,0.71,VWS V14.01,2013-07-30 23:40:00,
2013-07-30 18:43:00,78.6,52.3,29.90,East,95,0.0,0.0,40,0.00,,OVC023,0.71,VWS V14.01,2013-07-30 23:43:00,
2013-07-30 18:44:00,78.4,52.1,29.90,East,84,0.0,0.0,40,0.00,,OVC023,0.71,VWS V14.01,2013-07-30 23:44:00,
2013-07-30 18:45:00,78.4,52.1,29.90,East,84,0.0,0.0,40,0.00,,OVC023,0.71,VWS V14.01,2013-07-30 23:45:00,
2013-07-30 18:48:00,78.3,52.0,29.90,East,84,0.0,0.0,40,0.00,,OVC023,0.71,VWS V14.01,2013-07-30 23:48:00,
2013-07-30 18:49:00,78.3,52.0,29.90,East,84,0.0,0.0,40,0.00,,OVC023,0.71,VWS V14.01,2013-07-30 23:49:00,
2013-07-30 18:50:00,78.3,52.0,29.90,East,84,0.0,0.0,40,0.00,,OVC023,0.71,VWS V14.01,2013-07-30 23:50:00,
2013-07-30 18:53:00,77.9,53.0,29.90,East,84,0.0,0.0,42,0.00,,OVC023,0.71,VWS V14.01,2013-07-30 23:53:00,
2013-07-30 18:54:00,77.9,53.0,29.90,East,84,0.0,0.0,42,0.00,,OVC023,0.71,VWS V14.01,2013-07-30 23:54:00,
2013-07-30 18:55:00,77.9,53.0,29.90,East,84,0.0,0.0,42,0.00,,OVC023,0.71,VWS V14.01,2013-07-30 23:55:00,
2013-07-30 18:56:00,77.9,53.0,29.90,East,84,0.0,0.0,42,0.00,,OVC023,0.71,VWS V14.01,2013-07-30 23:56:00,
2013-07-30 18:58:00,77.7,52.8,29.90,East,84,0.0,0.0,42,0.00,,OVC023,0.71,VWS V14.01,2013-07-30 23:58:00,
2013-07-30 19:00:00,77.5,52.7,29.90,East,84,0.0,0.0,42,0.00,,OVC023,0.00,VWS V14.01,2013-07-31 00:00:00,
2013-07-30 19:01:00,77.5,52.7,29.90,East,84,0.0,0.0,42,0.00,,OVC036,0.71,VWS V14.01,2013-07-31 00:01:00,
2013-07-30 19:05:00,77.4,52.5,29.90,East,84,0.0,0.0,42,0.00,,OVC036,0.71,VWS V14.01,2013-07-31 00:05:00,
2013-07-30 19:06:00,77.4,52.5,29.90,East,84,0.0,0.0,42,0.00,,OVC036,0.71,VWS V14.01,2013-07-31 00:06:00,
2013-07-30 19:07:00,77.4,52.5,29.90,East,84,0.0,0.0,42,0.00,,OVC036,0.71,VWS V14.01,2013-07-31 00:07:00,
2013-07-30 19:10:00,77.2,53.6,29.90,East,84,0.0,0.0,44,0.00,,OVC036,0.71,VWS V14.01,2013-07-31 00:10:00,
2013-07-30 19:11:00,77.2,53.6,29.90,East,84,0.0,0.0,44,0.00,,OVC036,0.71,VWS V14.01,2013-07-31 00:11:00,
2013-07-30 19:13:00,77.2,53.6,29.90,East,84,0.0,0.0,44,0.00,,OVC036,0.71,VWS V14.01,2013-07-31 00:13:00,
2013-07-30 19:16:00,77.0,53.4,29.90,East,84,0.0,0.0,44,0.00,,OVC036,0.71,VWS V14.01,2013-07-31 00:16:00,
2013-07-30 19:17:00,77.0,53.4,29.90,East,84,0.0,0.0,44,0.00,,OVC036,0.71,VWS V14.01,2013-07-31 00:17:00,
2013-07-30 19:18:00,77.0,53.4,29.90,East,84,0.0,0.0,44,0.00,,OVC036,0.71,VWS V14.01,2013-07-31 00:18:00,
2013-07-30 19:19:00,77.0,53.4,29.90,East,84,0.0,0.0,44,0.00,,OVC036,0.71,VWS V14.01,2013-07-31 00:19:00,
2013-07-30 19:21:00,77.0,53.4,29.90,East,84,0.0,0.0,44,0.00,,OVC036,0.71,VWS V14.01,2013-07-31 00:21:00,
2013-07-30 19:22:00,77.0,54.7,29.90,East,84,0.0,0.0,46,0.00,,OVC036,0.71,VWS V14.01,2013-07-31 00:22:00,
2013-07-30 19:23:00,76.8,54.5,29.90,East,84,0.0,0.0,46,0.00,,OVC036,0.71,VWS V14.01,2013-07-31 00:23:00,
2013-07-30 19:26:00,76.8,54.5,29.90,East,84,0.0,0.0,46,0.00,,OVC036,0.71,VWS V14.01,2013-07-31 00:26:00,
2013-07-30 19:27:00,76.8,54.5,29.90,East,84,0.0,0.0,46,0.00,,OVC036,0.71,VWS V14.01,2013-07-31 00:27:00,
2013-07-30 19:28:00,76.8,54.5,29.90,East,84,0.0,0.0,46,0.00,,OVC036,0.71,VWS V14.01,2013-07-31 00:28:00,
2013-07-30 19:29:00,76.6,54.3,29.90,East,84,0.0,0.0,46,0.00,,OVC036,0.71,VWS V14.01,2013-07-31 00:29:00,
2013-07-30 19:30:00,76.6,55.5,29.90,East,84,0.0,0.0,48,0.00,,OVC036,0.71,VWS V14.01,2013-07-31 00:30:00,
2013-07-30 19:31:00,76.6,55.5,29.90,East,84,0.0,0.0,48,0.00,,OVC036,0.71,VWS V14.01,2013-07-31 00:31:00,
2013-07-30 19:32:00,76.5,55.3,29.90,East,84,0.0,0.0,48,0.00,,OVC036,0.71,VWS V14.01,2013-07-31 00:32:00,
2013-07-30 19:33:00,76.5,55.3,29.90,East,84,0.0,0.0,48,0.00,,OVC036,0.71,VWS V14.01,2013-07-31 00:33:00,
2013-07-30 19:34:00,76.5,55.3,29.90,East,84,0.0,0.0,48,0.00,,OVC036,0.71,VWS V14.01,2013-07-31 00:34:00,
2013-07-30 19:36:00,76.3,55.2,29.90,East,84,0.0,0.0,48,0.00,,OVC036,0.71,VWS V14.01,2013-07-31 00:36:00,
2013-07-30 19:38:00,76.3,55.2,29.90,East,84,0.0,0.0,48,0.00,,OVC036,0.71,VWS V14.01,2013-07-31 00:38:00,
2013-07-30 19:39:00,76.3,55.2,29.90,East,84,0.0,0.0,48,0.00,,OVC036,0.71,VWS V14.01,2013-07-31 00:39:00,
2013-07-30 19:42:00,76.1,56.1,29.90,East,84,0.0,0.0,50,0.00,,OVC036,0.71,VWS V14.01,2013-07-31 00:42:00,
2013-07-30 19:43:00,76.1,56.1,29.90,East,84,0.0,0.0,50,0.00,,OVC036,0.71,VWS V14.01,2013-07-31 00:43:00,
2013-07-30 19:44:00,76.1,56.1,29.90,East,84,0.0,0.0,50,0.00,,OVC036,0.71,VWS V14.01,2013-07-31 00:44:00,
2013-07-30 19:45:00,76.1,56.1,29.90,East,84,0.0,0.0,50,0.00,,OVC036,0.71,VWS V14.01,2013-07-31 00:45:00,
2013-07-30 19:47:00,76.1,56.1,29.90,East,84,0.0,0.0,50,0.00,,OVC036,0.71,VWS V14.01,2013-07-31 00:47:00,
2013-07-30 19:48:00,75.9,56.0,29.90,East,84,0.0,0.0,50,0.00,,OVC036,0.71,VWS V14.01,2013-07-31 00:48:00,
2013-07-30 19:49:00,75.9,56.0,29.90,East,84,0.0,0.0,50,0.00,,OVC036,0.71,VWS V14.01,2013-07-31 00:49:00,
2013-07-30 19:50:00,75.9,56.0,29.90,East,84,0.0,0.0,50,0.00,,OVC036,0.71,VWS V14.01,2013-07-31 00:50:00,
2013-07-30 19:54:00,75.7,56.9,29.90,East,84,0.0,0.0,52,0.00,,OVC036,0.71,VWS V14.01,2013-07-31 00:54:00,
2013-07-30 19:55:00,75.7,56.9,29.90,East,84,0.0,0.0,52,0.00,,OVC036,0.71,VWS V14.01,2013-07-31 00:55:00,
2013-07-30 19:56:00,75.7,56.9,29.90,East,84,0.0,0.0,52,0.00,,OVC036,0.71,VWS V14.01,2013-07-31 00:56:00,
2013-07-30 19:59:00,75.6,57.8,29.90,East,84,0.0,0.0,54,0.00,,OVC036,0.71,VWS V14.01,2013-07-31 00:59:00,
2013-07-30 20:00:00,75.6,57.8,29.90,East,84,0.0,0.0,54,0.00,,OVC036,0.71,VWS V14.01,2013-07-31 01:00:00,
2013-07-30 20:01:00,75.6,57.8,29.90,East,84,0.0,0.0,54,0.00,,OVC075,0.71,VWS V14.01,2013-07-31 01:01:00,
2013-07-30 20:02:00,75.6,58.8,29.90,East,84,0.0,0.0,56,0.00,,OVC075,0.71,VWS V14.01,2013-07-31 01:02:00,
2013-07-30 20:04:00,75.4,61.5,29.90,East,84,0.0,0.0,62,0.00,,OVC075,0.71,VWS V14.01,2013-07-31 01:04:00,
2013-07-30 20:06:00,75.2,61.3,29.90,East,84,0.0,0.0,62,0.00,,OVC075,0.71,VWS V14.01,2013-07-31 01:06:00,
2013-07-30 20:07:00,75.2,61.3,29.90,East,84,0.0,0.0,62,0.00,,OVC075,0.71,VWS V14.01,2013-07-31 01:07:00,
2013-07-30 20:10:00,75.0,62.0,29.90,North,6,3.1,3.1,64,0.00,,OVC075,0.71,VWS V14.01,2013-07-31 01:10:00,
2013-07-30 20:11:00,75.0,62.0,29.90,North,6,4.0,4.0,64,0.00,,OVC075,0.71,VWS V14.01,2013-07-31 01:11:00,
2013-07-30 20:12:00,75.0,62.9,29.90,NNE,13,5.4,5.4,66,0.00,,OVC075,0.71,VWS V14.01,2013-07-31 01:12:00,
2013-07-30 20:13:00,74.8,62.7,29.90,North,6,4.5,5.8,66,0.00,,OVC075,0.71,VWS V14.01,2013-07-31 01:13:00,
2013-07-30 20:15:00,74.8,62.7,29.90,NNE,15,4.9,5.4,66,0.00,,OVC075,0.71,VWS V14.01,2013-07-31 01:15:00,
2013-07-30 20:16:00,74.8,62.7,29.90,North,11,4.9,4.9,66,0.00,,OVC075,0.71,VWS V14.01,2013-07-31 01:16:00,
2013-07-30 20:17:00,74.8,62.7,29.90,NNE,13,4.9,4.9,66,0.00,,OVC075,0.71,VWS V14.01,2013-07-31 01:17:00,
2013-07-30 20:18:00,74.8,62.7,29.90,NNE,14,4.5,5.4,66,0.00,,OVC075,0.71,VWS V14.01,2013-07-31 01:18:00,
2013-07-30 20:20:00,74.7,63.4,29.90,NNE,18,3.6,4.0,68,0.00,,OVC075,0.71,VWS V14.01,2013-07-31 01:20:00,
2013-07-30 20:21:00,74.7,63.4,29.90,North,11,5.4,5.4,68,0.00,,OVC075,0.71,VWS V14.01,2013-07-31 01:21:00,
2013-07-30 20:22:00,74.7,63.4,29.90,North,11,4.0,4.9,68,0.00,,OVC075,0.71,VWS V14.01,2013-07-31 01:22:00,
2013-07-30 20:24:00,74.7,63.4,29.90,North,11,3.6,4.0,68,0.00,,OVC075,0.71,VWS V14.01,2013-07-31 01:24:00,
2013-07-30 20:27:00,74.7,64.2,29.93,North,11,2.7,3.6,70,0.00,,OVC075,0.71,VWS V14.01,2013-07-31 01:27:00,
2013-07-30 20:28:00,74.7,64.2,29.93,NNE,12,4.0,4.0,70,0.00,,OVC075,0.71,VWS V14.01,2013-07-31 01:28:00,
2013-07-30 20:29:00,74.5,64.1,29.93,NNE,12,2.7,4.0,70,0.00,,OVC075,0.71,VWS V14.01,2013-07-31 01:29:00,
2013-07-30 20:32:00,74.5,64.1,29.93,NNE,12,0.0,0.0,70,0.00,,OVC075,0.71,VWS V14.01,2013-07-31 01:32:00,
2013-07-30 20:33:00,74.5,64.1,29.93,NNE,12,0.0,0.0,70,0.00,,OVC075,0.71,VWS V14.01,2013-07-31 01:33:00,
2013-07-30 20:34:00,74.5,64.1,29.93,NNE,12,0.0,0.0,70,0.00,,OVC075,0.71,VWS V14.01,2013-07-31 01:34:00,
2013-07-30 20:35:00,74.5,64.1,29.93,NNE,12,0.0,0.0,70,0.00,,OVC075,0.71,VWS V14.01,2013-07-31 01:35:00,
2013-07-30 20:37:00,74.5,64.1,29.93,NNE,12,0.0,0.0,70,0.00,,OVC075,0.71,VWS V14.01,2013-07-31 01:37:00,
2013-07-30 20:39:00,74.3,63.9,29.93,NNE,12,0.0,0.0,70,0.00,,OVC075,0.71,VWS V14.01,2013-07-31 01:39:00,
2013-07-30 20:41:00,74.3,63.9,29.93,NNE,12,0.0,0.0,70,0.00,,OVC075,0.71,VWS V14.01,2013-07-31 01:41:00,
2013-07-30 20:42:00,74.3,63.9,29.93,NNE,12,0.0,0.0,70,0.00,,OVC075,0.71,VWS V14.01,2013-07-31 01:42:00,
2013-07-30 20:44:00,74.3,63.9,29.93,NNE,12,0.0,0.0,70,0.00,,OVC075,0.71,VWS V14.01,2013-07-31 01:44:00,
2013-07-30 20:46:00,74.1,64.5,29.93,NNE,12,0.0,0.0,72,0.00,,OVC075,0.71,VWS V14.01,2013-07-31 01:46:00,
2013-07-30 20:48:00,74.1,64.5,29.93,NNE,12,0.0,0.0,72,0.00,,OVC075,0.71,VWS V14.01,2013-07-31 01:48:00,
2013-07-30 20:49:00,74.1,64.5,29.93,NNE,13,0.0,0.0,72,0.00,,OVC075,0.71,VWS V14.01,2013-07-31 01:49:00,
2013-07-30 20:50:00,74.1,64.5,29.93,NNE,12,0.0,0.0,72,0.00,,OVC075,0.71,VWS V14.01,2013-07-31 01:50:00,
2013-07-30 20:51:00,74.1,65.3,29.93,NNE,13,0.0,0.0,74,0.00,,OVC075,0.71,VWS V14.01,2013-07-31 01:51:00,
2013-07-30 20:53:00,74.1,65.3,29.93,NNE,13,2.7,4.0,74,0.00,,OVC075,0.71,VWS V14.01,2013-07-31 01:53:00,
2013-07-30 20:55:00,74.1,66.1,29.93,NNE,12,0.0,0.0,76,0.00,,OVC075,0.71,VWS V14.01,2013-07-31 01:55:00,
2013-07-30 20:57:00,73.9,65.9,29.93,NNE,12,0.0,0.0,76,0.00,,OVC075,0.71,VWS V14.01,2013-07-31 01:57:00,
2013-07-30 20:58:00,73.9,66.7,29.93,NNE,12,0.0,0.0,78,0.00,,OVC075,0.71,VWS V14.01,2013-07-31 01:58:00,
2013-07-30 21:00:00,73.9,66.7,29.93,NNE,13,0.0,0.0,78,0.00,,OVC035,0.71,VWS V14.01,2013-07-31 02:00:00,
2013-07-30 21:01:00,73.9,66.7,29.93,NNE,13,0.0,0.0,78,0.00,,OVC035,0.71,VWS V14.01,2013-07-31 02:01:00,
2013-07-30 21:02:00,73.9,66.7,29.93,NNE,12,0.0,0.0,78,0.00,,OVC035,0.71,VWS V14.01,2013-07-31 02:02:00,
2013-07-30 21:04:00,73.9,67.4,29.93,NNE,13,0.0,0.0,80,0.00,,OVC035,0.71,VWS V14.01,2013-07-31 02:04:00,
2013-07-30 21:05:00,73.9,67.4,29.93,NNE,12,0.0,0.0,80,0.00,,OVC035,0.71,VWS V14.01,2013-07-31 02:05:00,
2013-07-30 21:06:00,73.9,67.4,29.93,NNE,13,0.0,0.0,80,0.00,,OVC035,0.71,VWS V14.01,2013-07-31 02:06:00,
2013-07-30 21:07:00,73.9,67.4,29.93,NNE,12,0.0,0.0,80,0.00,,OVC035,0.71,VWS V14.01,2013-07-31 02:07:00,
2013-07-30 21:10:00,73.9,67.4,29.93,NNE,12,0.0,0.0,80,0.00,,OVC035,0.71,VWS V14.01,2013-07-31 02:10:00,
2013-07-30 21:11:00,73.9,67.4,29.93,NNE,13,0.0,0.0,80,0.00,,OVC035,0.71,VWS V14.01,2013-07-31 02:11:00,
2013-07-30 21:12:00,73.9,67.4,29.93,NNE,12,0.0,0.0,80,0.00,,OVC035,0.71,VWS V14.01,2013-07-31 02:12:00,
2013-07-30 21:13:00,73.9,67.4,29.93,NNE,12,0.0,0.0,80,0.00,,OVC035,0.71,VWS V14.01,2013-07-31 02:13:00,
2013-07-30 21:15:00,73.9,68.1,29.93,NNE,13,0.0,0.0,82,0.00,,OVC035,0.71,VWS V14.01,2013-07-31 02:15:00,
2013-07-30 21:16:00,73.8,67.9,29.93,NNE,12,0.0,0.0,82,0.00,,OVC035,0.71,VWS V14.01,2013-07-31 02:16:00,
2013-07-30 21:17:00,73.8,67.9,29.93,NNE,12,0.0,0.0,82,0.00,,OVC035,0.71,VWS V14.01,2013-07-31 02:17:00,
2013-07-30 21:18:00,73.8,67.9,29.93,NNE,12,0.0,0.0,82,0.00,,OVC035,0.71,VWS V14.01,2013-07-31 02:18:00,
2013-07-30 21:19:00,73.8,67.9,29.93,NNE,12,0.0,0.0,82,0.00,,OVC035,0.71,VWS V14.01,2013-07-31 02:19:00,
2013-07-30 21:21:00,73.6,67.8,29.93,NNE,12,0.0,0.0,82,0.00,,OVC035,0.71,VWS V14.01,2013-07-31 02:21:00,
2013-07-30 21:22:00,73.6,67.8,29.93,NNE,12,0.0,2.7,82,0.00,,OVC035,0.71,VWS V14.01,2013-07-31 02:22:00,
2013-07-30 21:24:00,73.6,67.8,29.93,NNE,12,0.0,0.0,82,0.00,,OVC035,0.71,VWS V14.01,2013-07-31 02:24:00,
2013-07-30 21:27:00,73.4,67.6,29.93,NNE,12,0.0,0.0,82,0.00,,OVC035,0.71,VWS V14.01,2013-07-31 02:27:00,
2013-07-30 21:28:00,73.4,68.3,29.93,NNE,12,0.0,0.0,84,0.00,,OVC035,0.71,VWS V14.01,2013-07-31 02:28:00,
2013-07-30 21:29:00,73.4,68.3,29.93,NNE,12,0.0,0.0,84,0.00,,OVC035,0.71,VWS V14.01,2013-07-31 02:29:00,
2013-07-30 21:31:00,73.4,68.3,29.93,NNE,12,0.0,0.0,84,0.00,,OVC035,0.71,VWS V14.01,2013-07-31 02:31:00,
2013-07-30 21:32:00,73.2,68.1,29.93,NNE,12,0.0,0.0,84,0.00,,OVC035,0.71,VWS V14.01,2013-07-31 02:32:00,
2013-07-30 21:33:00,73.2,68.1,29.93,NNE,12,0.0,0.0,84,0.00,,OVC035,0.71,VWS V14.01,2013-07-31 02:33:00,
2013-07-30 21:34:00,73.2,68.1,29.93,NNE,12,0.0,0.0,84,0.00,,OVC035,0.71,VWS V14.01,2013-07-31 02:34:00,
2013-07-30 21:36:00,73.2,68.1,29.93,NNE,12,0.0,0.0,84,0.00,,OVC035,0.71,VWS V14.01,2013-07-31 02:36:00,
2013-07-30 21:37:00,73.2,68.1,29.93,NNE,12,0.0,0.0,84,0.00,,OVC035,0.71,VWS V14.01,2013-07-31 02:37:00,
2013-07-30 21:38:00,73.2,68.8,29.93,NNE,12,0.0,0.0,86,0.00,,OVC035,0.71,VWS V14.01,2013-07-31 02:38:00,
2013-07-30 21:39:00,73.2,68.8,29.93,NNE,12,0.0,0.0,86,0.00,,OVC035,0.71,VWS V14.01,2013-07-31 02:39:00,
2013-07-30 21:41:00,73.2,68.8,29.93,NNE,12,0.0,0.0,86,0.00,,OVC035,0.71,VWS V14.01,2013-07-31 02:41:00,
2013-07-30 21:42:00,73.2,68.8,29.93,NNE,12,0.0,0.0,86,0.00,,OVC035,0.71,VWS V14.01,2013-07-31 02:42:00,
2013-07-30 21:43:00,73.2,68.8,29.93,NNE,12,0.0,0.0,86,0.00,,OVC035,0.71,VWS V14.01,2013-07-31 02:43:00,
2013-07-30 21:44:00,73.2,68.8,29.93,NNE,12,0.0,0.0,86,0.00,,OVC035,0.71,VWS V14.01,2013-07-31 02:44:00,
2013-07-30 21:47:00,73.2,69.5,29.93,NNW,331,4.0,4.0,88,0.00,,OVC035,0.71,VWS V14.01,2013-07-31 02:47:00,
2013-07-30 21:49:00,73.2,70.1,29.93,NW,322,4.0,4.9,90,0.00,,OVC035,0.71,VWS V14.01,2013-07-31 02:49:00,
2013-07-30 21:51:00,73.2,70.8,29.93,NW,322,3.6,3.6,92,0.00,,OVC035,0.71,VWS V14.01,2013-07-31 02:51:00,
2013-07-30 21:52:00,73.0,70.6,29.93,NW,322,0.0,0.0,92,0.00,,OVC035,0.71,VWS V14.01,2013-07-31 02:52:00,
2013-07-30 21:53:00,73.0,70.6,29.93,North,349,0.0,0.0,92,0.00,,OVC035,0.71,VWS V14.01,2013-07-31 02:53:00,
2013-07-30 21:54:00,73.0,71.2,29.93,North,350,2.7,3.1,94,0.00,,OVC035,0.71,VWS V14.01,2013-07-31 02:54:00,
2013-07-30 21:55:00,73.0,71.2,29.93,North,350,2.2,3.1,94,0.00,,OVC035,0.71,VWS V14.01,2013-07-31 02:55:00,
2013-07-30 21:56:00,73.0,71.8,29.93,NNE,32,3.1,3.1,96,0.00,,OVC035,0.71,VWS V14.01,2013-07-31 02:56:00,
2013-07-30 21:58:00,73.0,73.1,29.93,NNE,22,2.7,3.1,100,0.00,,OVC035,0.71,VWS V14.01,2013-07-31 02:58:00,
2013-07-30 21:59:00,72.9,72.9,29.93,NNE,22,2.2,2.7,100,0.00,,OVC035,0.71,VWS V14.01,2013-07-31 02:59:00,
2013-07-30 22:00:00,72.9,72.9,29.93,NNE,22,2.2,2.7,100,0.00,,OVC035,0.71,VWS V14.01,2013-07-31 03:00:00,
2013-07-30 22:01:00,72.9,72.9,29.93,NNE,22,0.0,0.0,100,0.00,,,0.71,VWS V14.01,2013-07-31 03:01:00,
2013-07-30 22:03:00,72.9,72.9,29.93,NNE,22,0.0,0.0,100,0.00,,,0.71,VWS V14.01,2013-07-31 03:03:00,
2013-07-30 22:04:00,72.9,72.9,29.93,NNE,22,0.0,0.0,100,0.00,,,0.71,VWS V14.01,2013-07-31 03:04:00,
2013-07-30 22:05:00,72.9,72.9,29.93,NNE,22,0.0,0.0,100,0.00,,,0.71,VWS V14.01,2013-07-31 03:05:00,
2013-07-30 22:07:00,72.9,72.9,29.93,NNE,22,0.0,0.0,100,0.00,,,0.71,VWS V14.01,2013-07-31 03:07:00,
2013-07-30 22:09:00,72.9,72.9,29.93,NNE,22,0.0,0.0,100,0.00,,,0.71,VWS V14.01,2013-07-31 03:09:00,
2013-07-30 22:10:00,73.0,73.1,29.93,NNE,22,0.0,0.0,100,0.00,,,0.71,VWS V14.01,2013-07-31 03:10:00,
2013-07-30 22:11:00,73.0,73.1,29.96,NNE,22,0.0,0.0,100,0.00,,,0.71,VWS V14.01,2013-07-31 03:11:00,
2013-07-30 22:12:00,73.0,73.1,29.96,NNE,22,0.0,0.0,100,0.00,,,0.71,VWS V14.01,2013-07-31 03:12:00,
2013-07-30 22:13:00,73.0,73.1,29.96,NNE,22,0.0,0.0,100,0.00,,,0.71,VWS V14.01,2013-07-31 03:13:00,
2013-07-30 22:15:00,73.0,73.1,29.96,NNE,22,0.0,0.0,100,0.00,,,0.71,VWS V14.01,2013-07-31 03:15:00,
2013-07-30 22:17:00,73.0,73.1,29.96,NNE,22,0.0,0.0,100,0.00,,,0.71,VWS V14.01,2013-07-31 03:17:00,
2013-07-30 22:18:00,73.0,73.1,29.96,NNE,22,0.0,0.0,100,0.00,,,0.71,VWS V14.01,2013-07-31 03:18:00,
2013-07-30 22:20:00,73.0,73.1,29.96,NNE,22,0.0,0.0,100,0.00,,,0.71,VWS V14.01,2013-07-31 03:20:00,
2013-07-30 22:22:00,73.0,73.1,29.96,NNE,22,0.0,0.0,100,0.00,,,0.71,VWS V14.01,2013-07-31 03:22:00,
2013-07-30 22:23:00,73.0,73.1,29.96,NNE,22,0.0,0.0,100,0.00,,,0.71,VWS V14.01,2013-07-31 03:23:00,
2013-07-30 22:24:00,73.0,73.1,29.96,NNE,22,0.0,0.0,100,0.00,,,0.71,VWS V14.01,2013-07-31 03:24:00,
2013-07-30 22:25:00,73.0,73.1,29.96,NNE,22,0.0,0.0,100,0.00,,,0.71,VWS V14.01,2013-07-31 03:25:00,
2013-07-30 22:28:00,73.0,73.1,29.96,NNE,22,0.0,0.0,100,0.00,,,0.71,VWS V14.01,2013-07-31 03:28:00,
2013-07-30 22:30:00,73.0,73.1,29.96,NNE,22,0.0,0.0,100,0.00,,,0.71,VWS V14.01,2013-07-31 03:30:00,
2013-07-30 22:32:00,73.0,73.1,29.96,NNE,22,0.0,0.0,100,0.00,,,0.71,VWS V14.01,2013-07-31 03:32:00,
2013-07-30 22:33:00,73.0,73.1,29.96,NNE,22,0.0,0.0,100,0.00,,,0.71,VWS V14.01,2013-07-31 03:33:00,
2013-07-30 22:34:00,73.0,73.1,29.96,NW,324,3.1,3.1,100,0.00,,,0.71,VWS V14.01,2013-07-31 03:34:00,
2013-07-30 22:35:00,73.0,73.1,29.96,NW,324,3.6,3.6,100,0.00,,,0.71,VWS V14.01,2013-07-31 03:35:00,
2013-07-30 22:38:00,72.9,72.9,29.96,NW,324,2.7,3.1,100,0.00,,,0.71,VWS V14.01,2013-07-31 03:38:00,
2013-07-30 22:39:00,72.9,72.9,29.96,NW,324,2.7,3.1,100,0.00,,,0.71,VWS V14.01,2013-07-31 03:39:00,
2013-07-30 22:40:00,72.9,72.9,29.96,NW,324,2.2,2.7,100,0.00,,,0.71,VWS V14.01,2013-07-31 03:40:00,
2013-07-30 22:41:00,72.9,72.9,29.96,NW,324,3.6,3.6,100,0.00,,,0.71,VWS V14.01,2013-07-31 03:41:00,
2013-07-30 22:44:00,72.9,72.9,29.96,NW,324,2.2,2.7,100,0.00,,,0.71,VWS V14.01,2013-07-31 03:44:00,
2013-07-30 22:45:00,72.9,72.9,29.96,NW,325,0.0,0.0,100,0.00,,,0.71,VWS V14.01,2013-07-31 03:45:00,
2013-07-30 22:47:00,72.9,72.9,29.96,NW,325,0.0,2.2,100,0.00,,,0.71,VWS V14.01,2013-07-31 03:47:00,
2013-07-30 22:49:00,72.9,72.9,29.96,NW,325,0.0,0.0,100,0.00,,,0.71,VWS V14.01,2013-07-31 03:49:00,
2013-07-30 22:50:00,72.7,72.7,29.96,NW,325,0.0,0.0,100,0.00,,,0.71,VWS V14.01,2013-07-31 03:50:00,
2013-07-30 22:51:00,72.7,72.7,29.96,NW,325,0.0,0.0,100,0.00,,,0.71,VWS V14.01,2013-07-31 03:51:00,
2013-07-30 22:52:00,72.7,72.7,29.96,NW,325,0.0,0.0,100,0.00,,,0.71,VWS V14.01,2013-07-31 03:52:00,
2013-07-30 22:53:00,72.7,72.7,29.96,NW,325,0.0,0.0,100,0.00,,,0.71,VWS V14.01,2013-07-31 03:53:00,
2013-07-30 22:55:00,72.7,72.7,29.96,NW,325,0.0,0.0,100,0.00,,,0.71,VWS V14.01,2013-07-31 03:55:00,
2013-07-30 22:56:00,72.9,72.9,29.96,NW,325,0.0,0.0,100,0.00,,,0.71,VWS V14.01,2013-07-31 03:56:00,
2013-07-30 22:57:00,72.9,72.9,29.93,NW,325,0.0,0.0,100,0.00,,,0.71,VWS V14.01,2013-07-31 03:57:00,
2013-07-30 22:58:00,72.9,72.9,29.93,NW,325,0.0,0.0,100,0.00,,,0.71,VWS V14.01,2013-07-31 03:58:00,
2013-07-30 23:01:00,72.9,72.9,29.93,NW,325,0.0,0.0,100,0.00,,,0.71,VWS V14.01,2013-07-31 04:01:00,
2013-07-30 23:02:00,72.9,72.9,29.93,NW,325,0.0,0.0,100,0.00,,,0.71,VWS V14.01,2013-07-31 04:02:00,
2013-07-30 23:06:00,72.9,72.9,29.93,NW,325,0.0,0.0,100,0.00,,,0.71,VWS V14.01,2013-07-31 04:06:00,
2013-07-30 23:07:00,72.9,72.9,29.93,NW,325,0.0,0.0,100,0.00,,,0.71,VWS V14.01,2013-07-31 04:07:00,
2013-07-30 23:08:00,72.9,72.9,29.93,NW,325,0.0,0.0,100,0.00,,,0.71,VWS V14.01,2013-07-31 04:08:00,
2013-07-30 23:11:00,72.7,72.7,29.93,NW,325,0.0,0.0,100,0.00,,,0.71,VWS V14.01,2013-07-31 04:11:00,
2013-07-30 23:12:00,72.7,72.7,29.96,NW,325,0.0,0.0,100,0.00,,,0.71,VWS V14.01,2013-07-31 04:12:00,
2013-07-30 23:13:00,72.7,72.7,29.96,NW,325,0.0,0.0,100,0.00,,,0.71,VWS V14.01,2013-07-31 04:13:00,
2013-07-30 23:14:00,72.7,72.7,29.96,NW,325,0.0,0.0,100,0.00,,,0.71,VWS V14.01,2013-07-31 04:14:00,
2013-07-30 23:16:00,72.7,72.7,29.96,NW,325,0.0,0.0,100,0.00,,,0.71,VWS V14.01,2013-07-31 04:16:00,
2013-07-30 23:17:00,72.7,72.7,29.96,NW,325,0.0,0.0,100,0.00,,,0.71,VWS V14.01,2013-07-31 04:17:00,
2013-07-30 23:18:00,72.7,72.7,29.96,NW,325,0.0,0.0,100,0.00,,,0.71,VWS V14.01,2013-07-31 04:18:00,
2013-07-30 23:19:00,72.7,72.7,29.96,NNW,327,0.0,0.0,100,0.00,,,0.71,VWS V14.01,2013-07-31 04:19:00,
2013-07-30 23:22:00,72.7,72.7,29.96,NNW,327,2.7,4.0,100,0.00,,,0.71,VWS V14.01,2013-07-31 04:22:00,
2013-07-30 23:23:00,72.7,72.7,29.96,NNW,338,4.0,4.0,100,0.00,,,0.71,VWS V14.01,2013-07-31 04:23:00,
2013-07-30 23:24:00,72.7,72.7,29.96,North,353,3.1,3.1,100,0.00,,,0.71,VWS V14.01,2013-07-31 04:24:00,
2013-07-30 23:25:00,72.7,72.7,29.96,North,353,3.1,3.1,100,0.00,,,0.71,VWS V14.01,2013-07-31 04:25:00,
2013-07-30 23:27:00,72.7,72.7,29.96,NNW,330,4.0,6.3,100,0.00,,,0.71,VWS V14.01,2013-07-31 04:27:00,
2013-07-30 23:28:00,72.7,72.7,29.96,North,0,4.5,5.4,100,0.00,,,0.71,VWS V14.01,2013-07-31 04:28:00,
2013-07-30 23:29:00,72.7,72.7,29.96,NNW,338,5.4,5.4,100,0.00,,,0.71,VWS V14.01,2013-07-31 04:29:00,
2013-07-30 23:31:00,72.7,72.7,29.96,NNW,334,5.4,5.8,100,0.00,,,0.71,VWS V14.01,2013-07-31 04:31:00,
2013-07-30 23:32:00,72.7,72.7,29.96,NNW,338,5.8,5.8,100,0.00,,,0.71,VWS V14.01,2013-07-31 04:32:00,
2013-07-30 23:33:00,72.7,72.7,29.96,NNW,336,4.9,5.8,100,0.00,,,0.71,VWS V14.01,2013-07-31 04:33:00,
2013-07-30 23:36:00,72.7,72.7,29.96,NNE,17,4.5,6.3,100,0.00,,,0.71,VWS V14.01,2013-07-31 04:36:00,
2013-07-30 23:37:00,72.7,72.7,29.96,NNW,337,5.4,5.8,100,0.00,,,0.71,VWS V14.01,2013-07-31 04:37:00,
2013-07-30 23:40:00,72.5,72.5,29.96,NNW,345,3.6,6.3,100,0.00,,,0.71,VWS V14.01,2013-07-31 04:40:00,
2013-07-30 23:41:00,72.5,72.5,29.96,NNW,345,4.0,4.0,100,0.00,,,0.71,VWS V14.01,2013-07-31 04:41:00,
2013-07-30 23:43:00,72.5,72.5,29.96,NNW,331,3.6,3.6,100,0.00,,,0.71,VWS V14.01,2013-07-31 04:43:00,
2013-07-30 23:46:00,72.5,72.5,29.96,North,3,3.6,5.8,100,0.00,,,0.71,VWS V14.01,2013-07-31 04:46:00,
2013-07-30 23:47:00,72.5,72.5,29.96,NNE,16,5.8,5.8,100,0.00,,,0.71,VWS V14.01,2013-07-31 04:47:00,
2013-07-30 23:48:00,72.5,72.5,29.96,North,0,2.2,2.2,100,0.00,,,0.71,VWS V14.01,2013-07-31 04:48:00,
2013-07-30 23:49:00,72.5,72.5,29.96,North,357,2.7,2.7,100,0.00,,,0.71,VWS V14.01,2013-07-31 04:49:00,
2013-07-30 23:51:00,72.5,72.5,29.96,North,357,3.6,4.0,100,0.00,,,0.71,VWS V14.01,2013-07-31 04:51:00,
2013-07-30 23:52:00,72.3,72.3,29.96,North,9,2.7,5.8,100,0.00,,,0.71,VWS V14.01,2013-07-31 04:52:00,
2013-07-30 23:53:00,72.3,72.3,29.96,NNW,335,4.0,5.4,100,0.00,,,0.71,VWS V14.01,2013-07-31 04:53:00,
2013-07-30 23:54:00,72.3,72.3,29.96,NNW,335,2.7,5.4,100,0.00,,,0.71,VWS V14.01,2013-07-31 04:54:00,
2013-07-30 23:57:00,72.3,72.3,29.96,North,8,4.0,4.0,100,0.00,,,0.71,VWS V14.01,2013-07-31 04:57:00,
2013-07-30 23:58:00,72.3,72.3,29.96,North,8,3.1,4.0,100,0.00,,,0.71,VWS V14.01,2013-07-31 04:58:00,
2013-07-30 23:59:00,72.3,72.3,29.96,North,7,5.4,6.3,100,0.00,,,0.71,VWS V14.01,2013-07-31 04:59:00,